<?xml version="1.0" encoding="UTF-8"?>
<gpx version="1.1" creator="https://www.youtrack.es" xsi:schemaLocation="http://www.topografix.com/GPX/1/1 http://www.topografix.com/GPX/1/1/gpx.xsd http://www.garmin.com/xmlschemas/GpxExtensions/v3 http://www.garmin.com/xmlschemas/GpxExtensionsv3.xsd http://www.garmin.com/xmlschemas/TrackPointExtension/v1 http://www.garmin.com/xmlschemas/TrackPointExtensionv1.xsd" xmlns:gpxtpx="http://www.garmin.com/xmlschemas/TrackPointExtension/v1" xmlns:gpxx="http://www.garmin.com/xmlschemas/GpxExtensions/v3" xmlns:xsi="http://www.w3.org/2001/XMLSchema-instance">
  <metadata>
    <link href="https://www.youtrack.es">
      <text>YouTrack.es</text>
    </link>
    <time>2026-05-09T01:00:41Z</time>
  </metadata>
  <trk>
    <src>https://www.youtrack.es</src>
    <link href="https://www.youtrack.es/ruta/10351-trekking-2020">
      <text>YouTrack.es</text>
    </link>
    <trkseg>
      <trkpt lat="-39.745586" lon="-71.527683">
        <ele>1121.223</ele>
        <time>2020-01-11T13:39:25Z</time>
      </trkpt>
      <trkpt lat="-39.745475" lon="-71.527619">
        <ele>1121.483</ele>
        <time>2020-01-11T13:40:05Z</time>
      </trkpt>
      <trkpt lat="-39.745612" lon="-71.528006">
        <ele>1122.011</ele>
        <time>2020-01-11T13:40:45Z</time>
      </trkpt>
      <trkpt lat="-39.745957" lon="-71.528153">
        <ele>1122.808</ele>
        <time>2020-01-11T13:41:25Z</time>
      </trkpt>
      <trkpt lat="-39.745874" lon="-71.528828">
        <ele>1126.843</ele>
        <time>2020-01-11T13:42:05Z</time>
      </trkpt>
      <trkpt lat="-39.746190" lon="-71.529876">
        <ele>1151.028</ele>
        <time>2020-01-11T13:42:45Z</time>
      </trkpt>
      <trkpt lat="-39.745807" lon="-71.530648">
        <ele>1169.085</ele>
        <time>2020-01-11T13:43:25Z</time>
      </trkpt>
      <trkpt lat="-39.746079" lon="-71.530495">
        <ele>1177.831</ele>
        <time>2020-01-11T13:44:05Z</time>
      </trkpt>
      <trkpt lat="-39.746271" lon="-71.530585">
        <ele>1184.661</ele>
        <time>2020-01-11T13:44:45Z</time>
      </trkpt>
      <trkpt lat="-39.746272" lon="-71.530925">
        <ele>1191.083</ele>
        <time>2020-01-11T13:45:25Z</time>
      </trkpt>
      <trkpt lat="-39.745930" lon="-71.531272">
        <ele>1197.240</ele>
        <time>2020-01-11T13:46:05Z</time>
      </trkpt>
      <trkpt lat="-39.746213" lon="-71.531187">
        <ele>1202.019</ele>
        <time>2020-01-11T13:46:45Z</time>
      </trkpt>
      <trkpt lat="-39.746325" lon="-71.531367">
        <ele>1206.418</ele>
        <time>2020-01-11T13:47:25Z</time>
      </trkpt>
      <trkpt lat="-39.746097" lon="-71.532363">
        <ele>1220.698</ele>
        <time>2020-01-11T13:48:05Z</time>
      </trkpt>
      <trkpt lat="-39.745856" lon="-71.532868">
        <ele>1228.417</ele>
        <time>2020-01-11T13:48:45Z</time>
      </trkpt>
      <trkpt lat="-39.745712" lon="-71.532798">
        <ele>1227.608</ele>
        <time>2020-01-11T13:49:25Z</time>
      </trkpt>
      <trkpt lat="-39.745401" lon="-71.533753">
        <ele>1235.612</ele>
        <time>2020-01-11T13:50:05Z</time>
      </trkpt>
      <trkpt lat="-39.745764" lon="-71.535211">
        <ele>1250.887</ele>
        <time>2020-01-11T13:50:45Z</time>
      </trkpt>
      <trkpt lat="-39.745619" lon="-71.535761">
        <ele>1251.474</ele>
        <time>2020-01-11T13:51:25Z</time>
      </trkpt>
      <trkpt lat="-39.746625" lon="-71.538486">
        <ele>1265.460</ele>
        <time>2020-01-11T13:52:05Z</time>
      </trkpt>
      <trkpt lat="-39.746787" lon="-71.540463">
        <ele>1282.870</ele>
        <time>2020-01-11T13:52:45Z</time>
      </trkpt>
      <trkpt lat="-39.746606" lon="-71.540942">
        <ele>1284.662</ele>
        <time>2020-01-11T13:53:25Z</time>
      </trkpt>
      <trkpt lat="-39.747560" lon="-71.541932">
        <ele>1300.299</ele>
        <time>2020-01-11T13:54:05Z</time>
      </trkpt>
      <trkpt lat="-39.747928" lon="-71.542130">
        <ele>1303.668</ele>
        <time>2020-01-11T13:54:45Z</time>
      </trkpt>
      <trkpt lat="-39.747941" lon="-71.542552">
        <ele>1307.615</ele>
        <time>2020-01-11T13:55:25Z</time>
      </trkpt>
      <trkpt lat="-39.748734" lon="-71.544163">
        <ele>1326.865</ele>
        <time>2020-01-11T13:56:05Z</time>
      </trkpt>
      <trkpt lat="-39.748766" lon="-71.545239">
        <ele>1331.211</ele>
        <time>2020-01-11T13:56:45Z</time>
      </trkpt>
      <trkpt lat="-39.749539" lon="-71.546529">
        <ele>1331.408</ele>
        <time>2020-01-11T13:57:25Z</time>
      </trkpt>
      <trkpt lat="-39.749609" lon="-71.546963">
        <ele>1329.242</ele>
        <time>2020-01-11T13:58:05Z</time>
      </trkpt>
      <trkpt lat="-39.749945" lon="-71.547103">
        <ele>1324.087</ele>
        <time>2020-01-11T13:58:45Z</time>
      </trkpt>
      <trkpt lat="-39.750019" lon="-71.547366">
        <ele>1320.244</ele>
        <time>2020-01-11T13:59:25Z</time>
      </trkpt>
      <trkpt lat="-39.751434" lon="-71.547921">
        <ele>1305.860</ele>
        <time>2020-01-11T14:00:05Z</time>
      </trkpt>
      <trkpt lat="-39.752267" lon="-71.548782">
        <ele>1303.070</ele>
        <time>2020-01-11T14:00:45Z</time>
      </trkpt>
      <trkpt lat="-39.752684" lon="-71.548837">
        <ele>1302.452</ele>
        <time>2020-01-11T14:01:25Z</time>
      </trkpt>
      <trkpt lat="-39.752718" lon="-71.549222">
        <ele>1303.679</ele>
        <time>2020-01-11T14:02:05Z</time>
      </trkpt>
      <trkpt lat="-39.753138" lon="-71.549811">
        <ele>1304.668</ele>
        <time>2020-01-11T14:02:45Z</time>
      </trkpt>
      <trkpt lat="-39.753222" lon="-71.550404">
        <ele>1308.469</ele>
        <time>2020-01-11T14:03:25Z</time>
      </trkpt>
      <trkpt lat="-39.753644" lon="-71.550845">
        <ele>1306.604</ele>
        <time>2020-01-11T14:04:05Z</time>
      </trkpt>
      <trkpt lat="-39.753868" lon="-71.551393">
        <ele>1307.624</ele>
        <time>2020-01-11T14:04:45Z</time>
      </trkpt>
      <trkpt lat="-39.753756" lon="-71.551930">
        <ele>1305.608</ele>
        <time>2020-01-11T14:05:25Z</time>
      </trkpt>
      <trkpt lat="-39.754005" lon="-71.552289">
        <ele>1303.217</ele>
        <time>2020-01-11T14:06:05Z</time>
      </trkpt>
      <trkpt lat="-39.754348" lon="-71.553920">
        <ele>1303.442</ele>
        <time>2020-01-11T14:06:45Z</time>
      </trkpt>
      <trkpt lat="-39.754364" lon="-71.554579">
        <ele>1307.859</ele>
        <time>2020-01-11T14:07:25Z</time>
      </trkpt>
      <trkpt lat="-39.754152" lon="-71.555369">
        <ele>1305.455</ele>
        <time>2020-01-11T14:08:05Z</time>
      </trkpt>
      <trkpt lat="-39.754005" lon="-71.555470">
        <ele>1305.055</ele>
        <time>2020-01-11T14:08:45Z</time>
      </trkpt>
      <trkpt lat="-39.754015" lon="-71.556243">
        <ele>1304.277</ele>
        <time>2020-01-11T14:09:25Z</time>
      </trkpt>
      <trkpt lat="-39.754606" lon="-71.556952">
        <ele>1307.664</ele>
        <time>2020-01-11T14:10:05Z</time>
      </trkpt>
      <trkpt lat="-39.754829" lon="-71.558109">
        <ele>1308.893</ele>
        <time>2020-01-11T14:10:45Z</time>
      </trkpt>
      <trkpt lat="-39.754523" lon="-71.558858">
        <ele>1309.258</ele>
        <time>2020-01-11T14:11:25Z</time>
      </trkpt>
      <trkpt lat="-39.754506" lon="-71.559630">
        <ele>1310.852</ele>
        <time>2020-01-11T14:12:05Z</time>
      </trkpt>
      <trkpt lat="-39.754302" lon="-71.559934">
        <ele>1313.017</ele>
        <time>2020-01-11T14:12:45Z</time>
      </trkpt>
      <trkpt lat="-39.754169" lon="-71.560860">
        <ele>1317.208</ele>
        <time>2020-01-11T14:13:25Z</time>
      </trkpt>
      <trkpt lat="-39.753757" lon="-71.561794">
        <ele>1318.236</ele>
        <time>2020-01-11T14:14:05Z</time>
      </trkpt>
      <trkpt lat="-39.753817" lon="-71.562385">
        <ele>1321.011</ele>
        <time>2020-01-11T14:14:45Z</time>
      </trkpt>
      <trkpt lat="-39.753200" lon="-71.563187">
        <ele>1324.448</ele>
        <time>2020-01-11T14:15:25Z</time>
      </trkpt>
      <trkpt lat="-39.753068" lon="-71.563900">
        <ele>1323.244</ele>
        <time>2020-01-11T14:16:05Z</time>
      </trkpt>
      <trkpt lat="-39.752600" lon="-71.564759">
        <ele>1320.824</ele>
        <time>2020-01-11T14:16:45Z</time>
      </trkpt>
      <trkpt lat="-39.752678" lon="-71.565236">
        <ele>1317.476</ele>
        <time>2020-01-11T14:17:25Z</time>
      </trkpt>
      <trkpt lat="-39.752232" lon="-71.566335">
        <ele>1318.843</ele>
        <time>2020-01-11T14:18:05Z</time>
      </trkpt>
      <trkpt lat="-39.752149" lon="-71.567167">
        <ele>1321.052</ele>
        <time>2020-01-11T14:18:45Z</time>
      </trkpt>
      <trkpt lat="-39.751856" lon="-71.567648">
        <ele>1320.873</ele>
        <time>2020-01-11T14:19:25Z</time>
      </trkpt>
      <trkpt lat="-39.751261" lon="-71.568110">
        <ele>1322.085</ele>
        <time>2020-01-11T14:20:05Z</time>
      </trkpt>
      <trkpt lat="-39.750707" lon="-71.569374">
        <ele>1324.013</ele>
        <time>2020-01-11T14:20:45Z</time>
      </trkpt>
      <trkpt lat="-39.750157" lon="-71.570226">
        <ele>1326.008</ele>
        <time>2020-01-11T14:21:25Z</time>
      </trkpt>
      <trkpt lat="-39.749509" lon="-71.570899">
        <ele>1331.858</ele>
        <time>2020-01-11T14:22:05Z</time>
      </trkpt>
      <trkpt lat="-39.749004" lon="-71.571913">
        <ele>1334.053</ele>
        <time>2020-01-11T14:22:45Z</time>
      </trkpt>
      <trkpt lat="-39.748929" lon="-71.572388">
        <ele>1335.020</ele>
        <time>2020-01-11T14:23:25Z</time>
      </trkpt>
      <trkpt lat="-39.748248" lon="-71.573524">
        <ele>1340.816</ele>
        <time>2020-01-11T14:24:05Z</time>
      </trkpt>
      <trkpt lat="-39.748205" lon="-71.573874">
        <ele>1339.636</ele>
        <time>2020-01-11T14:24:45Z</time>
      </trkpt>
      <trkpt lat="-39.747285" lon="-71.574988">
        <ele>1343.288</ele>
        <time>2020-01-11T14:25:25Z</time>
      </trkpt>
      <trkpt lat="-39.747284" lon="-71.575652">
        <ele>1340.855</ele>
        <time>2020-01-11T14:26:05Z</time>
      </trkpt>
      <trkpt lat="-39.746584" lon="-71.577291">
        <ele>1343.054</ele>
        <time>2020-01-11T14:26:45Z</time>
      </trkpt>
      <trkpt lat="-39.745204" lon="-71.578614">
        <ele>1332.046</ele>
        <time>2020-01-11T14:27:25Z</time>
      </trkpt>
      <trkpt lat="-39.744571" lon="-71.578848">
        <ele>1329.488</ele>
        <time>2020-01-11T14:28:05Z</time>
      </trkpt>
      <trkpt lat="-39.744113" lon="-71.579257">
        <ele>1328.416</ele>
        <time>2020-01-11T14:28:45Z</time>
      </trkpt>
      <trkpt lat="-39.743789" lon="-71.579633">
        <ele>1323.608</ele>
        <time>2020-01-11T14:29:25Z</time>
      </trkpt>
      <trkpt lat="-39.743561" lon="-71.580380">
        <ele>1316.065</ele>
        <time>2020-01-11T14:30:05Z</time>
      </trkpt>
      <trkpt lat="-39.743171" lon="-71.580832">
        <ele>1312.850</ele>
        <time>2020-01-11T14:30:45Z</time>
      </trkpt>
      <trkpt lat="-39.742163" lon="-71.581239">
        <ele>1310.417</ele>
        <time>2020-01-11T14:31:25Z</time>
      </trkpt>
      <trkpt lat="-39.740992" lon="-71.582207">
        <ele>1303.413</ele>
        <time>2020-01-11T14:32:05Z</time>
      </trkpt>
      <trkpt lat="-39.741368" lon="-71.583081">
        <ele>1293.023</ele>
        <time>2020-01-11T14:32:45Z</time>
      </trkpt>
      <trkpt lat="-39.740987" lon="-71.583418">
        <ele>1290.885</ele>
        <time>2020-01-11T14:33:25Z</time>
      </trkpt>
      <trkpt lat="-39.740803" lon="-71.585815">
        <ele>1294.662</ele>
        <time>2020-01-11T14:34:05Z</time>
      </trkpt>
      <trkpt lat="-39.738273" lon="-71.586889">
        <ele>1294.491</ele>
        <time>2020-01-11T14:34:45Z</time>
      </trkpt>
      <trkpt lat="-39.737538" lon="-71.587783">
        <ele>1295.433</ele>
        <time>2020-01-11T14:35:25Z</time>
      </trkpt>
      <trkpt lat="-39.736818" lon="-71.587887">
        <ele>1293.823</ele>
        <time>2020-01-11T14:36:05Z</time>
      </trkpt>
      <trkpt lat="-39.735362" lon="-71.589247">
        <ele>1293.615</ele>
        <time>2020-01-11T14:36:45Z</time>
      </trkpt>
      <trkpt lat="-39.734971" lon="-71.589373">
        <ele>1292.408</ele>
        <time>2020-01-11T14:37:25Z</time>
      </trkpt>
      <trkpt lat="-39.734624" lon="-71.589879">
        <ele>1290.644</ele>
        <time>2020-01-11T14:38:05Z</time>
      </trkpt>
      <trkpt lat="-39.734212" lon="-71.591325">
        <ele>1282.439</ele>
        <time>2020-01-11T14:38:45Z</time>
      </trkpt>
      <trkpt lat="-39.733701" lon="-71.592017">
        <ele>1274.096</ele>
        <time>2020-01-11T14:39:25Z</time>
      </trkpt>
      <trkpt lat="-39.733533" lon="-71.592508">
        <ele>1267.242</ele>
        <time>2020-01-11T14:40:05Z</time>
      </trkpt>
      <trkpt lat="-39.733591" lon="-71.594187">
        <ele>1251.882</ele>
        <time>2020-01-11T14:40:45Z</time>
      </trkpt>
      <trkpt lat="-39.733151" lon="-71.595189">
        <ele>1244.624</ele>
        <time>2020-01-11T14:41:25Z</time>
      </trkpt>
      <trkpt lat="-39.732945" lon="-71.596435">
        <ele>1233.051</ele>
        <time>2020-01-11T14:42:05Z</time>
      </trkpt>
      <trkpt lat="-39.732828" lon="-71.596493">
        <ele>1231.690</ele>
        <time>2020-01-11T14:42:45Z</time>
      </trkpt>
      <trkpt lat="-39.732653" lon="-71.596342">
        <ele>1228.426</ele>
        <time>2020-01-11T14:43:25Z</time>
      </trkpt>
      <trkpt lat="-39.732410" lon="-71.595630">
        <ele>1220.047</ele>
        <time>2020-01-11T14:44:05Z</time>
      </trkpt>
      <trkpt lat="-39.732115" lon="-71.595701">
        <ele>1211.611</ele>
        <time>2020-01-11T14:44:45Z</time>
      </trkpt>
      <trkpt lat="-39.731968" lon="-71.595601">
        <ele>1208.008</ele>
        <time>2020-01-11T14:45:25Z</time>
      </trkpt>
      <trkpt lat="-39.731636" lon="-71.595906">
        <ele>1197.293</ele>
        <time>2020-01-11T14:46:05Z</time>
      </trkpt>
      <trkpt lat="-39.731478" lon="-71.596718">
        <ele>1185.078</ele>
        <time>2020-01-11T14:46:45Z</time>
      </trkpt>
      <trkpt lat="-39.731499" lon="-71.597632">
        <ele>1175.895</ele>
        <time>2020-01-11T14:47:25Z</time>
      </trkpt>
      <trkpt lat="-39.731259" lon="-71.598054">
        <ele>1173.041</ele>
        <time>2020-01-11T14:48:05Z</time>
      </trkpt>
      <trkpt lat="-39.730373" lon="-71.598061">
        <ele>1157.641</ele>
        <time>2020-01-11T14:48:45Z</time>
      </trkpt>
      <trkpt lat="-39.729465" lon="-71.597490">
        <ele>1143.693</ele>
        <time>2020-01-11T14:49:25Z</time>
      </trkpt>
      <trkpt lat="-39.729443" lon="-71.597437">
        <ele>940.214</ele>
        <time>2017-02-12T20:32:55Z</time>
      </trkpt>
      <trkpt lat="-39.729569" lon="-71.598067">
        <ele>938.954</ele>
        <time>2017-02-12T20:35:55Z</time>
      </trkpt>
      <trkpt lat="-39.729980" lon="-71.598796">
        <ele>935.109</ele>
        <time>2017-02-12T20:43:15Z</time>
      </trkpt>
      <trkpt lat="-39.731261" lon="-71.599837">
        <ele>940.308</ele>
        <time>2017-02-12T20:49:55Z</time>
      </trkpt>
      <trkpt lat="-39.731902" lon="-71.600755">
        <ele>952.322</ele>
        <time>2017-02-12T20:55:55Z</time>
      </trkpt>
      <trkpt lat="-39.732208" lon="-71.602499">
        <ele>946.127</ele>
        <time>2017-02-12T21:03:55Z</time>
      </trkpt>
      <trkpt lat="-39.732561" lon="-71.603524">
        <ele>943.084</ele>
        <time>2017-02-12T21:10:15Z</time>
      </trkpt>
      <trkpt lat="-39.732834" lon="-71.603721">
        <ele>947.150</ele>
        <time>2017-02-12T21:11:55Z</time>
      </trkpt>
      <trkpt lat="-39.732923" lon="-71.604106">
        <ele>945.260</ele>
        <time>2017-02-12T21:15:15Z</time>
      </trkpt>
      <trkpt lat="-39.733318" lon="-71.603996">
        <ele>953.863</ele>
        <time>2017-02-12T21:18:55Z</time>
      </trkpt>
      <trkpt lat="-39.733567" lon="-71.604084">
        <ele>957.871</ele>
        <time>2017-02-12T21:20:35Z</time>
      </trkpt>
      <trkpt lat="-39.733960" lon="-71.604784">
        <ele>957.453</ele>
        <time>2017-02-12T21:25:35Z</time>
      </trkpt>
      <trkpt lat="-39.734389" lon="-71.605223">
        <ele>959.986</ele>
        <time>2017-02-12T21:27:55Z</time>
      </trkpt>
      <trkpt lat="-39.734687" lon="-71.605994">
        <ele>959.660</ele>
        <time>2017-02-12T21:30:15Z</time>
      </trkpt>
      <trkpt lat="-39.735325" lon="-71.606677">
        <ele>961.626</ele>
        <time>2017-02-12T21:41:15Z</time>
      </trkpt>
      <trkpt lat="-39.735573" lon="-71.606618">
        <ele>964.308</ele>
        <time>2017-02-12T21:43:35Z</time>
      </trkpt>
      <trkpt lat="-39.735449" lon="-71.606683">
        <ele>962.699</ele>
        <time>2017-02-12T21:45:15Z</time>
      </trkpt>
      <trkpt lat="-39.735603" lon="-71.606766">
        <ele>962.794</ele>
        <time>2017-02-12T21:46:35Z</time>
      </trkpt>
      <trkpt lat="-39.735253" lon="-71.606681">
        <ele>961.051</ele>
        <time>2017-02-12T21:48:35Z</time>
      </trkpt>
      <trkpt lat="-39.735240" lon="-71.606556">
        <ele>961.957</ele>
        <time>2017-02-12T21:50:15Z</time>
      </trkpt>
      <trkpt lat="-39.735640" lon="-71.606753">
        <ele>963.247</ele>
        <time>2017-02-12T21:54:15Z</time>
      </trkpt>
      <trkpt lat="-39.735530" lon="-71.606633">
        <ele>963.880</ele>
        <time>2017-02-12T21:55:55Z</time>
      </trkpt>
      <trkpt lat="-39.735554" lon="-71.606773">
        <ele>962.388</ele>
        <time>2017-02-12T21:56:55Z</time>
      </trkpt>
      <trkpt lat="-39.735869" lon="-71.606796">
        <ele>964.850</ele>
        <time>2017-02-12T21:58:15Z</time>
      </trkpt>
      <trkpt lat="-39.736116" lon="-71.607206">
        <ele>962.972</ele>
        <time>2017-02-12T22:00:35Z</time>
      </trkpt>
      <trkpt lat="-39.736757" lon="-71.607527">
        <ele>969.613</ele>
        <time>2017-02-12T22:04:55Z</time>
      </trkpt>
      <trkpt lat="-39.736922" lon="-71.607842">
        <ele>970.414</ele>
        <time>2017-02-12T22:06:55Z</time>
      </trkpt>
      <trkpt lat="-39.737189" lon="-71.607990">
        <ele>975.308</ele>
        <time>2017-02-12T22:10:35Z</time>
      </trkpt>
      <trkpt lat="-39.737695" lon="-71.608972">
        <ele>967.018</ele>
        <time>2017-02-12T22:17:15Z</time>
      </trkpt>
      <trkpt lat="-39.737814" lon="-71.608913">
        <ele>968.753</ele>
        <time>2017-02-12T22:18:15Z</time>
      </trkpt>
      <trkpt lat="-39.738339" lon="-71.609983">
        <ele>954.350</ele>
        <time>2017-02-12T22:25:55Z</time>
      </trkpt>
      <trkpt lat="-39.738286" lon="-71.610784">
        <ele>952.216</ele>
        <time>2017-02-12T22:29:55Z</time>
      </trkpt>
      <trkpt lat="-39.738081" lon="-71.611406">
        <ele>940.946</ele>
        <time>2017-02-12T22:34:55Z</time>
      </trkpt>
      <trkpt lat="-39.738374" lon="-71.611670">
        <ele>944.459</ele>
        <time>2017-02-12T22:39:35Z</time>
      </trkpt>
      <trkpt lat="-39.738245" lon="-71.612054">
        <ele>934.927</ele>
        <time>2017-02-12T22:42:15Z</time>
      </trkpt>
      <trkpt lat="-39.738379" lon="-71.612086">
        <ele>937.049</ele>
        <time>2017-02-12T22:44:15Z</time>
      </trkpt>
      <trkpt lat="-39.738829" lon="-71.613076">
        <ele>928.366</ele>
        <time>2017-02-12T22:48:55Z</time>
      </trkpt>
      <trkpt lat="-39.739079" lon="-71.613045">
        <ele>932.529</ele>
        <time>2017-02-12T22:50:35Z</time>
      </trkpt>
      <trkpt lat="-39.739254" lon="-71.613190">
        <ele>932.921</ele>
        <time>2017-02-12T22:53:15Z</time>
      </trkpt>
      <trkpt lat="-39.739485" lon="-71.614060">
        <ele>921.308</ele>
        <time>2017-02-12T22:58:35Z</time>
      </trkpt>
      <trkpt lat="-39.740513" lon="-71.614932">
        <ele>930.687</ele>
        <time>2017-02-12T23:07:55Z</time>
      </trkpt>
      <trkpt lat="-39.741061" lon="-71.616063">
        <ele>922.272</ele>
        <time>2017-02-12T23:15:15Z</time>
      </trkpt>
      <trkpt lat="-39.742403" lon="-71.617083">
        <ele>926.799</ele>
        <time>2017-02-12T23:24:35Z</time>
      </trkpt>
      <trkpt lat="-39.742865" lon="-71.618425">
        <ele>919.175</ele>
        <time>2017-02-12T23:30:55Z</time>
      </trkpt>
      <trkpt lat="-39.743691" lon="-71.619256">
        <ele>920.465</ele>
        <time>2017-02-12T23:37:15Z</time>
      </trkpt>
      <trkpt lat="-39.744280" lon="-71.619222">
        <ele>925.328</ele>
        <time>2017-02-12T23:40:55Z</time>
      </trkpt>
      <trkpt lat="-39.745152" lon="-71.619778">
        <ele>931.466</ele>
        <time>2017-02-12T23:47:55Z</time>
      </trkpt>
      <trkpt lat="-39.745946" lon="-71.620043">
        <ele>939.758</ele>
        <time>2017-02-12T23:53:15Z</time>
      </trkpt>
      <trkpt lat="-39.746187" lon="-71.620427">
        <ele>941.856</ele>
        <time>2017-02-12T23:57:35Z</time>
      </trkpt>
      <trkpt lat="-39.746640" lon="-71.620591">
        <ele>945.159</ele>
        <time>2017-02-13T00:01:35Z</time>
      </trkpt>
      <trkpt lat="-39.746994" lon="-71.620953">
        <ele>942.514</ele>
        <time>2017-02-13T00:04:35Z</time>
      </trkpt>
      <trkpt lat="-39.748675" lon="-71.621407">
        <ele>953.808</ele>
        <time>2017-02-13T00:17:15Z</time>
      </trkpt>
      <trkpt lat="-39.748956" lon="-71.621309">
        <ele>959.776</ele>
        <time>2017-02-13T00:18:55Z</time>
      </trkpt>
      <trkpt lat="-39.749614" lon="-71.621394">
        <ele>975.071</ele>
        <time>2017-02-13T00:24:15Z</time>
      </trkpt>
      <trkpt lat="-39.749988" lon="-71.621237">
        <ele>986.828</ele>
        <time>2017-02-13T00:27:35Z</time>
      </trkpt>
      <trkpt lat="-39.750373" lon="-71.621547">
        <ele>985.954</ele>
        <time>2017-02-13T00:33:35Z</time>
      </trkpt>
      <trkpt lat="-39.750305" lon="-71.621614">
        <ele>985.014</ele>
        <time>2017-02-13T00:33:55Z</time>
      </trkpt>
      <trkpt lat="-39.750904" lon="-71.621732">
        <ele>985.067</ele>
        <time>2017-02-13T00:38:35Z</time>
      </trkpt>
      <trkpt lat="-39.751272" lon="-71.622319">
        <ele>981.085</ele>
        <time>2017-02-13T00:43:35Z</time>
      </trkpt>
      <trkpt lat="-39.751605" lon="-71.623543">
        <ele>970.157</ele>
        <time>2017-02-13T00:49:35Z</time>
      </trkpt>
      <trkpt lat="-39.752690" lon="-71.624445">
        <ele>982.356</ele>
        <time>2017-02-13T00:57:15Z</time>
      </trkpt>
      <trkpt lat="-39.752903" lon="-71.624909">
        <ele>976.259</ele>
        <time>2017-02-13T01:01:55Z</time>
      </trkpt>
      <trkpt lat="-39.753643" lon="-71.625654">
        <ele>969.114</ele>
        <time>2017-02-13T01:06:55Z</time>
      </trkpt>
      <trkpt lat="-39.753718" lon="-71.626119">
        <ele>964.008</ele>
        <time>2017-02-13T01:09:55Z</time>
      </trkpt>
      <trkpt lat="-39.754083" lon="-71.626637">
        <ele>962.596</ele>
        <time>2017-02-13T01:13:15Z</time>
      </trkpt>
      <trkpt lat="-39.753958" lon="-71.627114">
        <ele>957.431</ele>
        <time>2017-02-13T01:16:55Z</time>
      </trkpt>
      <trkpt lat="-39.754080" lon="-71.627887">
        <ele>951.318</ele>
        <time>2017-02-13T01:21:35Z</time>
      </trkpt>
      <trkpt lat="-39.754372" lon="-71.628336">
        <ele>948.534</ele>
        <time>2017-02-13T01:26:35Z</time>
      </trkpt>
      <trkpt lat="-39.754914" lon="-71.628540">
        <ele>949.574</ele>
        <time>2017-02-13T01:29:55Z</time>
      </trkpt>
      <trkpt lat="-39.755086" lon="-71.628792">
        <ele>946.557</ele>
        <time>2017-02-13T01:31:15Z</time>
      </trkpt>
      <trkpt lat="-39.754939" lon="-71.629006">
        <ele>943.285</ele>
        <time>2017-02-13T01:33:35Z</time>
      </trkpt>
      <trkpt lat="-39.755078" lon="-71.629223">
        <ele>940.847</ele>
        <time>2017-02-13T01:34:15Z</time>
      </trkpt>
      <trkpt lat="-39.755147" lon="-71.630144">
        <ele>934.633</ele>
        <time>2017-02-13T01:41:35Z</time>
      </trkpt>
      <trkpt lat="-39.755018" lon="-71.630432">
        <ele>930.423</ele>
        <time>2017-02-13T01:43:35Z</time>
      </trkpt>
      <trkpt lat="-39.755155" lon="-71.630924">
        <ele>924.615</ele>
        <time>2017-02-13T01:46:55Z</time>
      </trkpt>
      <trkpt lat="-39.755610" lon="-71.631818">
        <ele>915.608</ele>
        <time>2017-02-13T01:54:55Z</time>
      </trkpt>
      <trkpt lat="-39.755900" lon="-71.632017">
        <ele>917.844</ele>
        <time>2017-02-13T01:58:55Z</time>
      </trkpt>
      <trkpt lat="-39.755951" lon="-71.632458">
        <ele>914.349</ele>
        <time>2017-02-13T02:00:35Z</time>
      </trkpt>
      <trkpt lat="-39.756548" lon="-71.633727">
        <ele>914.726</ele>
        <time>2017-02-13T02:08:55Z</time>
      </trkpt>
      <trkpt lat="-39.756556" lon="-71.634101">
        <ele>914.412</ele>
        <time>2017-02-13T02:10:55Z</time>
      </trkpt>
      <trkpt lat="-39.756864" lon="-71.634489">
        <ele>914.922</ele>
        <time>2017-02-13T02:13:15Z</time>
      </trkpt>
      <trkpt lat="-39.757676" lon="-71.634595">
        <ele>915.915</ele>
        <time>2017-02-13T02:16:15Z</time>
      </trkpt>
      <trkpt lat="-39.758098" lon="-71.634403">
        <ele>917.533</ele>
        <time>2017-02-13T02:19:15Z</time>
      </trkpt>
      <trkpt lat="-39.759607" lon="-71.634638">
        <ele>928.925</ele>
        <time>2017-02-13T02:24:35Z</time>
      </trkpt>
      <trkpt lat="-39.760384" lon="-71.633629">
        <ele>945.544</ele>
        <time>2017-02-13T02:33:55Z</time>
      </trkpt>
      <trkpt lat="-39.761146" lon="-71.633739">
        <ele>948.605</ele>
        <time>2017-02-13T02:38:15Z</time>
      </trkpt>
      <trkpt lat="-39.762148" lon="-71.633361">
        <ele>952.715</ele>
        <time>2017-02-13T02:45:15Z</time>
      </trkpt>
      <trkpt lat="-39.762561" lon="-71.633560">
        <ele>954.708</ele>
        <time>2017-02-13T02:47:55Z</time>
      </trkpt>
      <trkpt lat="-39.762936" lon="-71.634156">
        <ele>960.385</ele>
        <time>2017-02-13T02:50:35Z</time>
      </trkpt>
      <trkpt lat="-39.763689" lon="-71.634509">
        <ele>966.620</ele>
        <time>2017-02-13T02:56:15Z</time>
      </trkpt>
      <trkpt lat="-39.764208" lon="-71.633472">
        <ele>974.237</ele>
        <time>2017-02-13T03:02:55Z</time>
      </trkpt>
      <trkpt lat="-39.764568" lon="-71.633125">
        <ele>980.593</ele>
        <time>2017-02-13T03:05:55Z</time>
      </trkpt>
      <trkpt lat="-39.765037" lon="-71.633297">
        <ele>977.823</ele>
        <time>2017-02-13T03:09:15Z</time>
      </trkpt>
      <trkpt lat="-39.765341" lon="-71.633182">
        <ele>979.886</ele>
        <time>2017-02-13T03:11:35Z</time>
      </trkpt>
      <trkpt lat="-39.766175" lon="-71.633469">
        <ele>975.754</ele>
        <time>2017-02-13T03:14:55Z</time>
      </trkpt>
      <trkpt lat="-39.767188" lon="-71.633367">
        <ele>978.836</ele>
        <time>2017-02-13T03:21:15Z</time>
      </trkpt>
      <trkpt lat="-39.768443" lon="-71.633033">
        <ele>990.353</ele>
        <time>2017-02-13T03:27:35Z</time>
      </trkpt>
      <trkpt lat="-39.769840" lon="-71.633291">
        <ele>1002.804</ele>
        <time>2017-02-13T03:34:15Z</time>
      </trkpt>
      <trkpt lat="-39.770105" lon="-71.633440">
        <ele>1005.914</ele>
        <time>2017-02-13T03:35:15Z</time>
      </trkpt>
      <trkpt lat="-39.769950" lon="-71.633497">
        <ele>1003.108</ele>
        <time>2017-02-13T03:35:35Z</time>
      </trkpt>
      <trkpt lat="-39.770017" lon="-71.633559">
        <ele>1003.926</ele>
        <time>2017-02-13T03:36:15Z</time>
      </trkpt>
      <trkpt lat="-39.770694" lon="-71.633768">
        <ele>1008.851</ele>
        <time>2017-02-13T03:39:55Z</time>
      </trkpt>
      <trkpt lat="-39.770756" lon="-71.634065">
        <ele>1003.838</ele>
        <time>2017-02-13T03:41:55Z</time>
      </trkpt>
      <trkpt lat="-39.771028" lon="-71.633865">
        <ele>1010.994</ele>
        <time>2017-02-13T03:45:15Z</time>
      </trkpt>
      <trkpt lat="-39.771258" lon="-71.634106">
        <ele>1009.864</ele>
        <time>2017-02-13T03:48:15Z</time>
      </trkpt>
      <trkpt lat="-39.771678" lon="-71.634192">
        <ele>1014.747</ele>
        <time>2017-02-13T03:51:15Z</time>
      </trkpt>
      <trkpt lat="-39.772321" lon="-71.634634">
        <ele>1012.955</ele>
        <time>2017-02-13T03:54:15Z</time>
      </trkpt>
      <trkpt lat="-39.772541" lon="-71.635213">
        <ele>1003.327</ele>
        <time>2017-02-13T03:56:55Z</time>
      </trkpt>
      <trkpt lat="-39.772919" lon="-71.635502">
        <ele>1000.171</ele>
        <time>2017-02-13T03:59:15Z</time>
      </trkpt>
      <trkpt lat="-39.773879" lon="-71.635837">
        <ele>1000.341</ele>
        <time>2017-02-13T04:03:55Z</time>
      </trkpt>
      <trkpt lat="-39.774680" lon="-71.635771">
        <ele>1008.015</ele>
        <time>2017-02-13T04:07:55Z</time>
      </trkpt>
      <trkpt lat="-39.775508" lon="-71.635957">
        <ele>1004.208</ele>
        <time>2017-02-13T04:13:55Z</time>
      </trkpt>
      <trkpt lat="-39.775998" lon="-71.635854">
        <ele>1000.648</ele>
        <time>2017-02-13T04:18:55Z</time>
      </trkpt>
      <trkpt lat="-39.776518" lon="-71.636102">
        <ele>993.783</ele>
        <time>2017-02-13T04:24:15Z</time>
      </trkpt>
      <trkpt lat="-39.776993" lon="-71.637679">
        <ele>980.880</ele>
        <time>2017-02-13T04:38:15Z</time>
      </trkpt>
      <trkpt lat="-39.776675" lon="-71.638399">
        <ele>980.826</ele>
        <time>2017-02-13T04:42:55Z</time>
      </trkpt>
      <trkpt lat="-39.776554" lon="-71.639672">
        <ele>977.516</ele>
        <time>2017-02-13T04:48:55Z</time>
      </trkpt>
      <trkpt lat="-39.776929" lon="-71.640522">
        <ele>971.119</ele>
        <time>2017-02-13T04:53:35Z</time>
      </trkpt>
      <trkpt lat="-39.777245" lon="-71.640810">
        <ele>968.317</ele>
        <time>2017-02-13T04:55:55Z</time>
      </trkpt>
      <trkpt lat="-39.777435" lon="-71.640795">
        <ele>967.569</ele>
        <time>2017-02-13T04:56:35Z</time>
      </trkpt>
      <trkpt lat="-39.777808" lon="-71.640293">
        <ele>967.755</ele>
        <time>2017-02-13T04:58:35Z</time>
      </trkpt>
      <trkpt lat="-39.778185" lon="-71.640299">
        <ele>966.307</ele>
        <time>2017-02-13T05:00:35Z</time>
      </trkpt>
      <trkpt lat="-39.779627" lon="-71.639873">
        <ele>973.117</ele>
        <time>2017-02-13T05:07:15Z</time>
      </trkpt>
      <trkpt lat="-39.779928" lon="-71.641145">
        <ele>975.008</ele>
        <time>2017-02-13T05:12:55Z</time>
      </trkpt>
      <trkpt lat="-39.779846" lon="-71.641383">
        <ele>975.726</ele>
        <time>2017-02-13T05:14:15Z</time>
      </trkpt>
      <trkpt lat="-39.780012" lon="-71.641594">
        <ele>977.871</ele>
        <time>2017-02-13T05:16:15Z</time>
      </trkpt>
      <trkpt lat="-39.780223" lon="-71.641340">
        <ele>979.928</ele>
        <time>2017-02-13T05:17:55Z</time>
      </trkpt>
      <trkpt lat="-39.780395" lon="-71.641683">
        <ele>984.324</ele>
        <time>2017-02-13T05:21:15Z</time>
      </trkpt>
      <trkpt lat="-39.781192" lon="-71.641819">
        <ele>1000.244</ele>
        <time>2017-02-13T05:30:35Z</time>
      </trkpt>
      <trkpt lat="-39.781794" lon="-71.641637">
        <ele>1013.387</ele>
        <time>2017-02-13T05:37:35Z</time>
      </trkpt>
      <trkpt lat="-39.782215" lon="-71.641324">
        <ele>1018.825</ele>
        <time>2017-02-13T05:41:55Z</time>
      </trkpt>
      <trkpt lat="-39.783277" lon="-71.641767">
        <ele>1036.527</ele>
        <time>2017-02-13T05:51:55Z</time>
      </trkpt>
      <trkpt lat="-39.783912" lon="-71.642578">
        <ele>1043.269</ele>
        <time>2017-02-13T06:00:15Z</time>
      </trkpt>
      <trkpt lat="-39.783860" lon="-71.643882">
        <ele>1058.504</ele>
        <time>2017-02-13T06:08:15Z</time>
      </trkpt>
      <trkpt lat="-39.784332" lon="-71.644470">
        <ele>1067.924</ele>
        <time>2017-02-13T06:14:35Z</time>
      </trkpt>
      <trkpt lat="-39.784845" lon="-71.644435">
        <ele>1065.508</ele>
        <time>2017-02-13T06:16:15Z</time>
      </trkpt>
      <trkpt lat="-39.785194" lon="-71.645141">
        <ele>1069.887</ele>
        <time>2017-02-13T06:20:35Z</time>
      </trkpt>
      <trkpt lat="-39.785335" lon="-71.645144">
        <ele>1067.442</ele>
        <time>2017-02-13T06:20:55Z</time>
      </trkpt>
      <trkpt lat="-39.785280" lon="-71.645499">
        <ele>1072.689</ele>
        <time>2017-02-13T06:22:35Z</time>
      </trkpt>
      <trkpt lat="-39.785521" lon="-71.646004">
        <ele>1074.075</ele>
        <time>2017-02-13T06:26:15Z</time>
      </trkpt>
      <trkpt lat="-39.785534" lon="-71.646515">
        <ele>1082.255</ele>
        <time>2017-02-13T06:29:35Z</time>
      </trkpt>
      <trkpt lat="-39.786028" lon="-71.646993">
        <ele>1080.158</ele>
        <time>2017-02-13T06:34:15Z</time>
      </trkpt>
      <trkpt lat="-39.786140" lon="-71.647287">
        <ele>1084.756</ele>
        <time>2017-02-13T06:37:55Z</time>
      </trkpt>
      <trkpt lat="-39.785965" lon="-71.648088">
        <ele>1101.688</ele>
        <time>2017-02-13T06:45:15Z</time>
      </trkpt>
      <trkpt lat="-39.786497" lon="-71.648648">
        <ele>1091.031</ele>
        <time>2017-02-13T06:49:55Z</time>
      </trkpt>
      <trkpt lat="-39.786624" lon="-71.648591">
        <ele>1085.461</ele>
        <time>2017-02-13T06:52:15Z</time>
      </trkpt>
      <trkpt lat="-39.786573" lon="-71.649104">
        <ele>1093.507</ele>
        <time>2017-02-13T06:56:15Z</time>
      </trkpt>
      <trkpt lat="-39.787079" lon="-71.650025">
        <ele>1096.408</ele>
        <time>2017-02-13T07:04:15Z</time>
      </trkpt>
      <trkpt lat="-39.786908" lon="-71.650251">
        <ele>1109.514</ele>
        <time>2017-02-13T07:06:35Z</time>
      </trkpt>
      <trkpt lat="-39.787072" lon="-71.650157">
        <ele>1100.379</ele>
        <time>2017-02-13T07:09:15Z</time>
      </trkpt>
      <trkpt lat="-39.787188" lon="-71.650394">
        <ele>1102.276</ele>
        <time>2017-02-13T07:11:55Z</time>
      </trkpt>
      <trkpt lat="-39.787376" lon="-71.650256">
        <ele>1090.782</ele>
        <time>2017-02-13T07:13:55Z</time>
      </trkpt>
      <trkpt lat="-39.787495" lon="-71.650518">
        <ele>1093.772</ele>
        <time>2017-02-13T07:17:15Z</time>
      </trkpt>
      <trkpt lat="-39.787718" lon="-71.650544">
        <ele>1090.595</ele>
        <time>2017-02-13T07:19:15Z</time>
      </trkpt>
      <trkpt lat="-39.787595" lon="-71.650779">
        <ele>1099.063</ele>
        <time>2017-02-13T07:20:35Z</time>
      </trkpt>
      <trkpt lat="-39.788094" lon="-71.650907">
        <ele>1088.545</ele>
        <time>2017-02-13T07:26:15Z</time>
      </trkpt>
      <trkpt lat="-39.788385" lon="-71.651237">
        <ele>1085.766</ele>
        <time>2017-02-13T07:29:35Z</time>
      </trkpt>
      <trkpt lat="-39.788825" lon="-71.652298">
        <ele>1083.229</ele>
        <time>2017-02-13T07:35:55Z</time>
      </trkpt>
      <trkpt lat="-39.788929" lon="-71.652939">
        <ele>1083.821</ele>
        <time>2017-02-13T07:40:55Z</time>
      </trkpt>
      <trkpt lat="-39.788786" lon="-71.653119">
        <ele>1088.508</ele>
        <time>2017-02-13T07:43:15Z</time>
      </trkpt>
      <trkpt lat="-39.788867" lon="-71.653440">
        <ele>1088.287</ele>
        <time>2017-02-13T07:45:35Z</time>
      </trkpt>
      <trkpt lat="-39.789109" lon="-71.653497">
        <ele>1082.752</ele>
        <time>2017-02-13T07:48:15Z</time>
      </trkpt>
      <trkpt lat="-39.789162" lon="-71.654130">
        <ele>1083.049</ele>
        <time>2017-02-13T07:53:35Z</time>
      </trkpt>
      <trkpt lat="-39.789271" lon="-71.654285">
        <ele>1082.585</ele>
        <time>2017-02-13T07:55:55Z</time>
      </trkpt>
      <trkpt lat="-39.789524" lon="-71.654288">
        <ele>1077.895</ele>
        <time>2017-02-13T07:57:35Z</time>
      </trkpt>
      <trkpt lat="-39.789542" lon="-71.654015">
        <ele>1076.018</ele>
        <time>2017-02-13T07:59:35Z</time>
      </trkpt>
      <trkpt lat="-39.789775" lon="-71.653817">
        <ele>1071.516</ele>
        <time>2017-02-13T08:00:55Z</time>
      </trkpt>
      <trkpt lat="-39.789966" lon="-71.653966">
        <ele>1068.488</ele>
        <time>2017-02-13T08:03:15Z</time>
      </trkpt>
      <trkpt lat="-39.790626" lon="-71.653723">
        <ele>1064.963</ele>
        <time>2017-02-13T08:07:55Z</time>
      </trkpt>
      <trkpt lat="-39.790936" lon="-71.653795">
        <ele>1064.844</ele>
        <time>2017-02-13T08:09:35Z</time>
      </trkpt>
      <trkpt lat="-39.791134" lon="-71.653595">
        <ele>1066.818</ele>
        <time>2017-02-13T08:10:55Z</time>
      </trkpt>
      <trkpt lat="-39.791840" lon="-71.654684">
        <ele>1069.108</ele>
        <time>2017-02-13T08:15:35Z</time>
      </trkpt>
      <trkpt lat="-39.791665" lon="-71.654872">
        <ele>1069.057</ele>
        <time>2017-02-13T08:18:35Z</time>
      </trkpt>
      <trkpt lat="-39.792399" lon="-71.655113">
        <ele>1070.062</ele>
        <time>2017-02-13T08:22:15Z</time>
      </trkpt>
      <trkpt lat="-39.792439" lon="-71.655408">
        <ele>1072.829</ele>
        <time>2017-02-13T08:23:15Z</time>
      </trkpt>
      <trkpt lat="-39.792609" lon="-71.655553">
        <ele>1075.575</ele>
        <time>2017-02-13T08:24:15Z</time>
      </trkpt>
      <trkpt lat="-39.792528" lon="-71.655230">
        <ele>1071.695</ele>
        <time>2017-02-13T08:26:55Z</time>
      </trkpt>
      <trkpt lat="-39.792881" lon="-71.654843">
        <ele>1075.428</ele>
        <time>2017-02-13T08:28:55Z</time>
      </trkpt>
      <trkpt lat="-39.792812" lon="-71.654427">
        <ele>1074.446</ele>
        <time>2017-02-13T08:31:15Z</time>
      </trkpt>
      <trkpt lat="-39.793303" lon="-71.653762">
        <ele>1081.388</ele>
        <time>2017-02-13T08:35:35Z</time>
      </trkpt>
      <trkpt lat="-39.793478" lon="-71.653919">
        <ele>1083.645</ele>
        <time>2017-02-13T08:37:15Z</time>
      </trkpt>
      <trkpt lat="-39.793608" lon="-71.653849">
        <ele>1085.147</ele>
        <time>2017-02-13T08:38:35Z</time>
      </trkpt>
      <trkpt lat="-39.793774" lon="-71.654146">
        <ele>1088.311</ele>
        <time>2017-02-13T08:40:55Z</time>
      </trkpt>
      <trkpt lat="-39.794497" lon="-71.653658">
        <ele>1095.208</ele>
        <time>2017-02-13T08:48:35Z</time>
      </trkpt>
      <trkpt lat="-39.795539" lon="-71.653217">
        <ele>1115.145</ele>
        <time>2017-02-13T08:54:15Z</time>
      </trkpt>
      <trkpt lat="-39.795738" lon="-71.653327">
        <ele>1118.070</ele>
        <time>2017-02-13T08:57:55Z</time>
      </trkpt>
      <trkpt lat="-39.795967" lon="-71.653189">
        <ele>1125.227</ele>
        <time>2017-02-13T09:01:15Z</time>
      </trkpt>
      <trkpt lat="-39.796751" lon="-71.653369">
        <ele>1144.843</ele>
        <time>2017-02-13T09:14:55Z</time>
      </trkpt>
      <trkpt lat="-39.796863" lon="-71.653717">
        <ele>1151.573</ele>
        <time>2017-02-13T09:17:35Z</time>
      </trkpt>
      <trkpt lat="-39.797029" lon="-71.653759">
        <ele>1155.926</ele>
        <time>2017-02-13T09:20:55Z</time>
      </trkpt>
      <trkpt lat="-39.797372" lon="-71.652983">
        <ele>1152.194</ele>
        <time>2017-02-13T09:26:35Z</time>
      </trkpt>
      <trkpt lat="-39.798519" lon="-71.651873">
        <ele>1142.966</ele>
        <time>2017-02-13T09:33:55Z</time>
      </trkpt>
      <trkpt lat="-39.799638" lon="-71.651114">
        <ele>1130.667</ele>
        <time>2017-02-13T09:40:35Z</time>
      </trkpt>
      <trkpt lat="-39.800157" lon="-71.650342">
        <ele>1128.081</ele>
        <time>2017-02-13T09:45:35Z</time>
      </trkpt>
      <trkpt lat="-39.800169" lon="-71.650128">
        <ele>1131.519</ele>
        <time>2017-02-13T09:46:15Z</time>
      </trkpt>
      <trkpt lat="-39.800370" lon="-71.650041">
        <ele>1128.008</ele>
        <time>2017-02-13T09:47:15Z</time>
      </trkpt>
      <trkpt lat="-39.800403" lon="-71.650701">
        <ele>1115.697</ele>
        <time>2017-02-13T09:51:55Z</time>
      </trkpt>
      <trkpt lat="-39.801141" lon="-71.650608">
        <ele>1100.822</ele>
        <time>2017-02-13T09:57:55Z</time>
      </trkpt>
      <trkpt lat="-39.801254" lon="-71.650820">
        <ele>1094.729</ele>
        <time>2017-02-13T09:59:55Z</time>
      </trkpt>
      <trkpt lat="-39.801025" lon="-71.651215">
        <ele>1095.925</ele>
        <time>2017-02-13T10:04:15Z</time>
      </trkpt>
      <trkpt lat="-39.801516" lon="-71.651378">
        <ele>1084.565</ele>
        <time>2017-02-13T10:07:15Z</time>
      </trkpt>
      <trkpt lat="-39.802387" lon="-71.651093">
        <ele>1073.288</ele>
        <time>2017-02-13T10:14:15Z</time>
      </trkpt>
      <trkpt lat="-39.803200" lon="-71.650374">
        <ele>1069.236</ele>
        <time>2017-02-13T10:17:35Z</time>
      </trkpt>
      <trkpt lat="-39.803577" lon="-71.650386">
        <ele>1062.848</ele>
        <time>2017-02-13T10:19:15Z</time>
      </trkpt>
      <trkpt lat="-39.803880" lon="-71.650608">
        <ele>1055.052</ele>
        <time>2017-02-13T10:21:55Z</time>
      </trkpt>
      <trkpt lat="-39.804177" lon="-71.651195">
        <ele>1052.853</ele>
        <time>2017-02-13T10:25:15Z</time>
      </trkpt>
      <trkpt lat="-39.805084" lon="-71.650892">
        <ele>1045.808</ele>
        <time>2017-02-13T10:27:15Z</time>
      </trkpt>
      <trkpt lat="-39.805444" lon="-71.651115">
        <ele>1053.708</ele>
        <time>2017-02-13T10:31:15Z</time>
      </trkpt>
      <trkpt lat="-39.805937" lon="-71.650871">
        <ele>1051.476</ele>
        <time>2017-02-13T10:34:35Z</time>
      </trkpt>
      <trkpt lat="-39.806354" lon="-71.650893">
        <ele>1053.961</ele>
        <time>2017-02-13T10:37:55Z</time>
      </trkpt>
      <trkpt lat="-39.807685" lon="-71.650366">
        <ele>1044.968</ele>
        <time>2017-02-13T10:43:55Z</time>
      </trkpt>
      <trkpt lat="-39.808117" lon="-71.650424">
        <ele>1042.594</ele>
        <time>2017-02-13T10:46:35Z</time>
      </trkpt>
      <trkpt lat="-39.809220" lon="-71.649865">
        <ele>1030.224</ele>
        <time>2017-02-13T10:51:35Z</time>
      </trkpt>
      <trkpt lat="-39.809743" lon="-71.650165">
        <ele>1043.827</ele>
        <time>2017-02-13T10:53:35Z</time>
      </trkpt>
      <trkpt lat="-39.809850" lon="-71.649736">
        <ele>1035.975</ele>
        <time>2017-02-13T10:55:35Z</time>
      </trkpt>
      <trkpt lat="-39.810289" lon="-71.649506">
        <ele>1035.027</ele>
        <time>2017-02-13T10:57:35Z</time>
      </trkpt>
      <trkpt lat="-39.810545" lon="-71.648977">
        <ele>1028.284</ele>
        <time>2017-02-13T11:00:35Z</time>
      </trkpt>
      <trkpt lat="-39.811147" lon="-71.648663">
        <ele>1032.307</ele>
        <time>2017-02-13T11:02:35Z</time>
      </trkpt>
      <trkpt lat="-39.811972" lon="-71.647826">
        <ele>1030.017</ele>
        <time>2017-02-13T11:05:15Z</time>
      </trkpt>
      <trkpt lat="-39.812318" lon="-71.647230">
        <ele>1026.008</ele>
        <time>2017-02-13T11:07:35Z</time>
      </trkpt>
      <trkpt lat="-39.813170" lon="-71.646640">
        <ele>1020.949</ele>
        <time>2017-02-13T11:14:15Z</time>
      </trkpt>
      <trkpt lat="-39.813903" lon="-71.645699">
        <ele>1007.494</ele>
        <time>2017-02-13T11:19:35Z</time>
      </trkpt>
      <trkpt lat="-39.814663" lon="-71.645632">
        <ele>1003.411</ele>
        <time>2017-02-13T11:24:35Z</time>
      </trkpt>
      <trkpt lat="-39.814902" lon="-71.645131">
        <ele>989.387</ele>
        <time>2017-02-13T11:27:15Z</time>
      </trkpt>
      <trkpt lat="-39.815341" lon="-71.644844">
        <ele>984.597</ele>
        <time>2017-02-13T11:29:55Z</time>
      </trkpt>
      <trkpt lat="-39.815814" lon="-71.644625">
        <ele>983.360</ele>
        <time>2017-02-13T11:30:55Z</time>
      </trkpt>
      <trkpt lat="-39.816447" lon="-71.644574">
        <ele>991.568</ele>
        <time>2017-02-13T11:34:55Z</time>
      </trkpt>
      <trkpt lat="-39.816480" lon="-71.644187">
        <ele>985.010</ele>
        <time>2017-02-13T11:36:35Z</time>
      </trkpt>
      <trkpt lat="-39.816670" lon="-71.643987">
        <ele>984.475</ele>
        <time>2017-02-13T11:37:35Z</time>
      </trkpt>
      <trkpt lat="-39.817978" lon="-71.643619">
        <ele>987.528</ele>
        <time>2017-02-13T11:41:55Z</time>
      </trkpt>
      <trkpt lat="-39.818432" lon="-71.642497">
        <ele>984.120</ele>
        <time>2017-02-13T11:47:55Z</time>
      </trkpt>
      <trkpt lat="-39.818774" lon="-71.642189">
        <ele>990.008</ele>
        <time>2017-02-13T11:50:55Z</time>
      </trkpt>
      <trkpt lat="-39.818865" lon="-71.642466">
        <ele>993.318</ele>
        <time>2017-02-13T11:52:15Z</time>
      </trkpt>
      <trkpt lat="-39.818986" lon="-71.642282">
        <ele>995.153</ele>
        <time>2017-02-13T11:53:55Z</time>
      </trkpt>
      <trkpt lat="-39.819054" lon="-71.642391">
        <ele>997.050</ele>
        <time>2017-02-13T11:54:35Z</time>
      </trkpt>
      <trkpt lat="-39.818751" lon="-71.642291">
        <ele>990.056</ele>
        <time>2017-02-13T11:55:35Z</time>
      </trkpt>
      <trkpt lat="-39.819067" lon="-71.641897">
        <ele>995.016</ele>
        <time>2017-02-13T11:59:55Z</time>
      </trkpt>
      <trkpt lat="-39.820210" lon="-71.641791">
        <ele>986.329</ele>
        <time>2017-02-13T12:05:55Z</time>
      </trkpt>
      <trkpt lat="-39.820452" lon="-71.640490">
        <ele>987.567</ele>
        <time>2017-02-13T12:11:15Z</time>
      </trkpt>
      <trkpt lat="-39.820894" lon="-71.639808">
        <ele>980.169</ele>
        <time>2017-02-13T12:16:35Z</time>
      </trkpt>
      <trkpt lat="-39.820996" lon="-71.640069">
        <ele>976.078</ele>
        <time>2017-02-13T12:17:35Z</time>
      </trkpt>
      <trkpt lat="-39.820805" lon="-71.641032">
        <ele>973.633</ele>
        <time>2017-02-13T12:21:15Z</time>
      </trkpt>
      <trkpt lat="-39.821277" lon="-71.642144">
        <ele>951.826</ele>
        <time>2017-02-13T12:27:55Z</time>
      </trkpt>
      <trkpt lat="-39.821266" lon="-71.642691">
        <ele>950.408</ele>
        <time>2017-02-13T12:32:15Z</time>
      </trkpt>
      <trkpt lat="-39.821446" lon="-71.642654">
        <ele>943.948</ele>
        <time>2017-02-13T12:33:55Z</time>
      </trkpt>
      <trkpt lat="-39.821792" lon="-71.642179">
        <ele>935.873</ele>
        <time>2017-02-13T12:36:15Z</time>
      </trkpt>
      <trkpt lat="-39.821648" lon="-71.641029">
        <ele>943.290</ele>
        <time>2017-02-13T12:38:55Z</time>
      </trkpt>
      <trkpt lat="-39.821785" lon="-71.641088">
        <ele>940.186</ele>
        <time>2017-02-13T12:40:15Z</time>
      </trkpt>
      <trkpt lat="-39.821821" lon="-71.641482">
        <ele>938.586</ele>
        <time>2017-02-13T12:42:15Z</time>
      </trkpt>
      <trkpt lat="-39.822049" lon="-71.641555">
        <ele>933.929</ele>
        <time>2017-02-13T12:43:35Z</time>
      </trkpt>
      <trkpt lat="-39.822426" lon="-71.641069">
        <ele>927.977</ele>
        <time>2017-02-13T12:44:55Z</time>
      </trkpt>
      <trkpt lat="-39.822966" lon="-71.640701">
        <ele>924.979</ele>
        <time>2017-02-13T12:47:15Z</time>
      </trkpt>
      <trkpt lat="-39.823261" lon="-71.641328">
        <ele>927.622</ele>
        <time>2017-02-13T12:50:55Z</time>
      </trkpt>
      <trkpt lat="-39.824814" lon="-71.641822">
        <ele>933.962</ele>
        <time>2017-02-13T12:51:55Z</time>
      </trkpt>
      <trkpt lat="-39.825429" lon="-71.641575">
        <ele>937.708</ele>
        <time>2017-02-13T12:53:15Z</time>
      </trkpt>
      <trkpt lat="-39.826769" lon="-71.638787">
        <ele>938.808</ele>
        <time>2017-02-13T12:58:55Z</time>
      </trkpt>
      <trkpt lat="-39.827750" lon="-71.635278">
        <ele>932.613</ele>
        <time>2017-02-13T13:07:15Z</time>
      </trkpt>
      <trkpt lat="-39.827639" lon="-71.634750">
        <ele>930.448</ele>
        <time>2017-02-13T13:07:35Z</time>
      </trkpt>
      <trkpt lat="-39.826639" lon="-71.633444">
        <ele>916.235</ele>
        <time>2017-02-13T13:07:55Z</time>
      </trkpt>
      <trkpt lat="-39.826556" lon="-71.632722">
        <ele>918.511</ele>
        <time>2017-02-13T13:08:35Z</time>
      </trkpt>
      <trkpt lat="-39.835262" lon="-71.524742">
        <ele>1222.095</ele>
        <time>2020-01-11T13:39:17Z</time>
      </trkpt>
      <trkpt lat="-39.835289" lon="-71.525928">
        <ele>1219.449</ele>
        <time>2020-01-11T13:39:57Z</time>
      </trkpt>
      <trkpt lat="-39.836896" lon="-71.526909">
        <ele>1219.223</ele>
        <time>2020-01-11T13:40:37Z</time>
      </trkpt>
      <trkpt lat="-39.838503" lon="-71.527645">
        <ele>1220.208</ele>
        <time>2020-01-11T13:41:17Z</time>
      </trkpt>
      <trkpt lat="-39.839176" lon="-71.528276">
        <ele>1220.460</ele>
        <time>2020-01-11T13:41:57Z</time>
      </trkpt>
      <trkpt lat="-39.839326" lon="-71.528508">
        <ele>1221.235</ele>
        <time>2020-01-11T13:42:37Z</time>
      </trkpt>
      <trkpt lat="-39.839344" lon="-71.529392">
        <ele>1221.262</ele>
        <time>2020-01-11T13:43:17Z</time>
      </trkpt>
      <trkpt lat="-39.839928" lon="-71.530995">
        <ele>1223.288</ele>
        <time>2020-01-11T13:43:57Z</time>
      </trkpt>
      <trkpt lat="-39.839966" lon="-71.531614">
        <ele>1224.838</ele>
        <time>2020-01-11T13:44:37Z</time>
      </trkpt>
      <trkpt lat="-39.839785" lon="-71.532508">
        <ele>1223.621</ele>
        <time>2020-01-11T13:45:17Z</time>
      </trkpt>
      <trkpt lat="-39.839473" lon="-71.532644">
        <ele>1226.461</ele>
        <time>2020-01-11T13:45:57Z</time>
      </trkpt>
      <trkpt lat="-39.839407" lon="-71.533295">
        <ele>1227.887</ele>
        <time>2020-01-11T13:46:37Z</time>
      </trkpt>
      <trkpt lat="-39.838982" lon="-71.533552">
        <ele>1220.259</ele>
        <time>2020-01-11T13:47:17Z</time>
      </trkpt>
      <trkpt lat="-39.838806" lon="-71.533876">
        <ele>1221.803</ele>
        <time>2020-01-11T13:47:57Z</time>
      </trkpt>
      <trkpt lat="-39.838986" lon="-71.535043">
        <ele>1226.423</ele>
        <time>2020-01-11T13:48:37Z</time>
      </trkpt>
      <trkpt lat="-39.838858" lon="-71.535229">
        <ele>1227.408</ele>
        <time>2020-01-11T13:49:17Z</time>
      </trkpt>
      <trkpt lat="-39.838906" lon="-71.535675">
        <ele>1229.466</ele>
        <time>2020-01-11T13:49:57Z</time>
      </trkpt>
      <trkpt lat="-39.838684" lon="-71.536760">
        <ele>1234.011</ele>
        <time>2020-01-11T13:50:37Z</time>
      </trkpt>
      <trkpt lat="-39.838343" lon="-71.536843">
        <ele>1234.048</ele>
        <time>2020-01-11T13:51:17Z</time>
      </trkpt>
      <trkpt lat="-39.838283" lon="-71.537055">
        <ele>1234.084</ele>
        <time>2020-01-11T13:51:57Z</time>
      </trkpt>
      <trkpt lat="-39.838673" lon="-71.538223">
        <ele>1238.074</ele>
        <time>2020-01-11T13:52:37Z</time>
      </trkpt>
      <trkpt lat="-39.838481" lon="-71.539048">
        <ele>1237.817</ele>
        <time>2020-01-11T13:53:17Z</time>
      </trkpt>
      <trkpt lat="-39.838856" lon="-71.539228">
        <ele>1239.067</ele>
        <time>2020-01-11T13:53:57Z</time>
      </trkpt>
      <trkpt lat="-39.839290" lon="-71.539833">
        <ele>1241.283</ele>
        <time>2020-01-11T13:54:37Z</time>
      </trkpt>
      <trkpt lat="-39.839477" lon="-71.539720">
        <ele>1245.035</ele>
        <time>2020-01-11T13:55:17Z</time>
      </trkpt>
      <trkpt lat="-39.839846" lon="-71.539912">
        <ele>1243.086</ele>
        <time>2020-01-11T13:55:57Z</time>
      </trkpt>
      <trkpt lat="-39.840022" lon="-71.539850">
        <ele>1243.014</ele>
        <time>2020-01-11T13:56:37Z</time>
      </trkpt>
      <trkpt lat="-39.840621" lon="-71.540259">
        <ele>1247.608</ele>
        <time>2020-01-11T13:57:17Z</time>
      </trkpt>
      <trkpt lat="-39.841029" lon="-71.540081">
        <ele>1253.264</ele>
        <time>2020-01-11T13:57:57Z</time>
      </trkpt>
      <trkpt lat="-39.841263" lon="-71.540209">
        <ele>1257.269</ele>
        <time>2020-01-11T13:58:37Z</time>
      </trkpt>
      <trkpt lat="-39.841278" lon="-71.540535">
        <ele>1261.626</ele>
        <time>2020-01-11T13:59:17Z</time>
      </trkpt>
      <trkpt lat="-39.841770" lon="-71.541014">
        <ele>1278.232</ele>
        <time>2020-01-11T13:59:57Z</time>
      </trkpt>
      <trkpt lat="-39.842412" lon="-71.540989">
        <ele>1287.852</ele>
        <time>2020-01-11T14:00:37Z</time>
      </trkpt>
      <trkpt lat="-39.842536" lon="-71.541326">
        <ele>1297.475</ele>
        <time>2020-01-11T14:01:17Z</time>
      </trkpt>
      <trkpt lat="-39.842721" lon="-71.541296">
        <ele>1300.825</ele>
        <time>2020-01-11T14:01:57Z</time>
      </trkpt>
      <trkpt lat="-39.842853" lon="-71.541738">
        <ele>1308.471</ele>
        <time>2020-01-11T14:02:37Z</time>
      </trkpt>
      <trkpt lat="-39.843028" lon="-71.541753">
        <ele>1310.641</ele>
        <time>2020-01-11T14:03:17Z</time>
      </trkpt>
      <trkpt lat="-39.843552" lon="-71.542671">
        <ele>1327.281</ele>
        <time>2020-01-11T14:03:57Z</time>
      </trkpt>
      <trkpt lat="-39.843575" lon="-71.543235">
        <ele>1327.409</ele>
        <time>2020-01-11T14:04:37Z</time>
      </trkpt>
      <trkpt lat="-39.843400" lon="-71.543450">
        <ele>1323.408</ele>
        <time>2020-01-11T14:05:17Z</time>
      </trkpt>
      <trkpt lat="-39.843496" lon="-71.543749">
        <ele>1330.045</ele>
        <time>2020-01-11T14:05:57Z</time>
      </trkpt>
      <trkpt lat="-39.843256" lon="-71.544381">
        <ele>1331.230</ele>
        <time>2020-01-11T14:06:37Z</time>
      </trkpt>
      <trkpt lat="-39.843349" lon="-71.545257">
        <ele>1332.457</ele>
        <time>2020-01-11T14:07:17Z</time>
      </trkpt>
      <trkpt lat="-39.843701" lon="-71.545568">
        <ele>1339.813</ele>
        <time>2020-01-11T14:07:57Z</time>
      </trkpt>
      <trkpt lat="-39.843690" lon="-71.545956">
        <ele>1346.293</ele>
        <time>2020-01-11T14:08:37Z</time>
      </trkpt>
      <trkpt lat="-39.844073" lon="-71.546483">
        <ele>1351.656</ele>
        <time>2020-01-11T14:09:17Z</time>
      </trkpt>
      <trkpt lat="-39.844091" lon="-71.546711">
        <ele>1352.826</ele>
        <time>2020-01-11T14:09:57Z</time>
      </trkpt>
      <trkpt lat="-39.845368" lon="-71.547943">
        <ele>1375.282</ele>
        <time>2020-01-11T14:10:37Z</time>
      </trkpt>
      <trkpt lat="-39.845885" lon="-71.549285">
        <ele>1376.659</ele>
        <time>2020-01-11T14:11:17Z</time>
      </trkpt>
      <trkpt lat="-39.846340" lon="-71.549817">
        <ele>1360.003</ele>
        <time>2020-01-11T14:11:57Z</time>
      </trkpt>
      <trkpt lat="-39.846332" lon="-71.549997">
        <ele>1355.223</ele>
        <time>2020-01-11T14:12:37Z</time>
      </trkpt>
      <trkpt lat="-39.847282" lon="-71.550323">
        <ele>1359.208</ele>
        <time>2020-01-11T14:13:17Z</time>
      </trkpt>
      <trkpt lat="-39.847354" lon="-71.550455">
        <ele>1360.696</ele>
        <time>2020-01-11T14:13:57Z</time>
      </trkpt>
      <trkpt lat="-39.847592" lon="-71.550400">
        <ele>1362.441</ele>
        <time>2020-01-11T14:14:37Z</time>
      </trkpt>
      <trkpt lat="-39.848106" lon="-71.550814">
        <ele>1365.418</ele>
        <time>2020-01-11T14:15:17Z</time>
      </trkpt>
      <trkpt lat="-39.849332" lon="-71.551044">
        <ele>1371.224</ele>
        <time>2020-01-11T14:15:57Z</time>
      </trkpt>
      <trkpt lat="-39.850329" lon="-71.551114">
        <ele>1374.864</ele>
        <time>2020-01-11T14:16:37Z</time>
      </trkpt>
      <trkpt lat="-39.850832" lon="-71.550870">
        <ele>1385.627</ele>
        <time>2020-01-11T14:17:17Z</time>
      </trkpt>
      <trkpt lat="-39.851560" lon="-71.550864">
        <ele>1399.877</ele>
        <time>2020-01-11T14:17:57Z</time>
      </trkpt>
      <trkpt lat="-39.852039" lon="-71.550663">
        <ele>1412.083</ele>
        <time>2020-01-11T14:18:37Z</time>
      </trkpt>
      <trkpt lat="-39.852590" lon="-71.551100">
        <ele>1406.219</ele>
        <time>2020-01-11T14:19:17Z</time>
      </trkpt>
      <trkpt lat="-39.852857" lon="-71.550907">
        <ele>1409.609</ele>
        <time>2020-01-11T14:19:57Z</time>
      </trkpt>
      <trkpt lat="-39.853117" lon="-71.550982">
        <ele>1414.019</ele>
        <time>2020-01-11T14:20:37Z</time>
      </trkpt>
      <trkpt lat="-39.853386" lon="-71.550854">
        <ele>1417.208</ele>
        <time>2020-01-11T14:21:17Z</time>
      </trkpt>
      <trkpt lat="-39.854190" lon="-71.551008">
        <ele>1422.252</ele>
        <time>2020-01-11T14:21:57Z</time>
      </trkpt>
      <trkpt lat="-39.854512" lon="-71.551447">
        <ele>1424.097</ele>
        <time>2020-01-11T14:22:37Z</time>
      </trkpt>
      <trkpt lat="-39.855928" lon="-71.551534">
        <ele>1427.844</ele>
        <time>2020-01-11T14:23:17Z</time>
      </trkpt>
      <trkpt lat="-39.856568" lon="-71.552318">
        <ele>1436.250</ele>
        <time>2020-01-11T14:23:57Z</time>
      </trkpt>
      <trkpt lat="-39.856540" lon="-71.552452">
        <ele>1436.630</ele>
        <time>2020-01-11T14:24:37Z</time>
      </trkpt>
      <trkpt lat="-39.856585" lon="-71.552308">
        <ele>1437.693</ele>
        <time>2020-01-11T14:25:17Z</time>
      </trkpt>
      <trkpt lat="-39.857066" lon="-71.552463">
        <ele>1437.013</ele>
        <time>2020-01-11T14:25:57Z</time>
      </trkpt>
      <trkpt lat="-39.857482" lon="-71.553140">
        <ele>1439.489</ele>
        <time>2020-01-11T14:26:37Z</time>
      </trkpt>
      <trkpt lat="-39.857839" lon="-71.553295">
        <ele>1446.694</ele>
        <time>2020-01-11T14:27:17Z</time>
      </trkpt>
      <trkpt lat="-39.858359" lon="-71.553378">
        <ele>1450.857</ele>
        <time>2020-01-11T14:27:57Z</time>
      </trkpt>
      <trkpt lat="-39.858679" lon="-71.553223">
        <ele>1455.222</ele>
        <time>2020-01-11T14:28:37Z</time>
      </trkpt>
      <trkpt lat="-39.858879" lon="-71.553296">
        <ele>1459.008</ele>
        <time>2020-01-11T14:29:17Z</time>
      </trkpt>
      <trkpt lat="-39.859672" lon="-71.553126">
        <ele>1465.820</ele>
        <time>2020-01-11T14:29:57Z</time>
      </trkpt>
      <trkpt lat="-39.860040" lon="-71.553443">
        <ele>1470.025</ele>
        <time>2020-01-11T14:30:37Z</time>
      </trkpt>
      <trkpt lat="-39.861002" lon="-71.553731">
        <ele>1480.422</ele>
        <time>2020-01-11T14:31:17Z</time>
      </trkpt>
      <trkpt lat="-39.863210" lon="-71.553953">
        <ele>1499.018</ele>
        <time>2020-01-11T14:31:57Z</time>
      </trkpt>
      <trkpt lat="-39.863956" lon="-71.554118">
        <ele>1507.248</ele>
        <time>2020-01-11T14:32:37Z</time>
      </trkpt>
      <trkpt lat="-39.864082" lon="-71.554284">
        <ele>1508.491</ele>
        <time>2020-01-11T14:33:17Z</time>
      </trkpt>
      <trkpt lat="-39.864722" lon="-71.554271">
        <ele>1511.461</ele>
        <time>2020-01-11T14:33:57Z</time>
      </trkpt>
      <trkpt lat="-39.865435" lon="-71.554648">
        <ele>1518.017</ele>
        <time>2020-01-11T14:34:37Z</time>
      </trkpt>
      <trkpt lat="-39.865725" lon="-71.554662">
        <ele>1520.072</ele>
        <time>2020-01-11T14:35:17Z</time>
      </trkpt>
      <trkpt lat="-39.866221" lon="-71.555391">
        <ele>1523.813</ele>
        <time>2020-01-11T14:35:57Z</time>
      </trkpt>
      <trkpt lat="-39.867453" lon="-71.555870">
        <ele>1528.414</ele>
        <time>2020-01-11T14:36:37Z</time>
      </trkpt>
      <trkpt lat="-39.867730" lon="-71.556303">
        <ele>1530.408</ele>
        <time>2020-01-11T14:37:17Z</time>
      </trkpt>
      <trkpt lat="-39.868339" lon="-71.556308">
        <ele>1539.858</ele>
        <time>2020-01-11T14:37:57Z</time>
      </trkpt>
      <trkpt lat="-39.868804" lon="-71.556672">
        <ele>1545.243</ele>
        <time>2020-01-11T14:38:37Z</time>
      </trkpt>
      <trkpt lat="-39.869337" lon="-71.556429">
        <ele>1549.290</ele>
        <time>2020-01-11T14:39:17Z</time>
      </trkpt>
      <trkpt lat="-39.869642" lon="-71.556082">
        <ele>1545.026</ele>
        <time>2020-01-11T14:39:57Z</time>
      </trkpt>
      <trkpt lat="-39.870715" lon="-71.555831">
        <ele>1547.216</ele>
        <time>2020-01-11T14:40:37Z</time>
      </trkpt>
      <trkpt lat="-39.872868" lon="-71.557296">
        <ele>1551.089</ele>
        <time>2020-01-11T14:41:17Z</time>
      </trkpt>
      <trkpt lat="-39.873374" lon="-71.557405">
        <ele>1537.899</ele>
        <time>2020-01-11T14:41:57Z</time>
      </trkpt>
      <trkpt lat="-39.873953" lon="-71.557084">
        <ele>1536.065</ele>
        <time>2020-01-11T14:42:37Z</time>
      </trkpt>
      <trkpt lat="-39.874276" lon="-71.557066">
        <ele>1534.056</ele>
        <time>2020-01-11T14:43:17Z</time>
      </trkpt>
      <trkpt lat="-39.874274" lon="-71.556903">
        <ele>1533.259</ele>
        <time>2020-01-11T14:43:57Z</time>
      </trkpt>
      <trkpt lat="-39.874572" lon="-71.556920">
        <ele>1541.214</ele>
        <time>2020-01-11T14:44:37Z</time>
      </trkpt>
      <trkpt lat="-39.874744" lon="-71.556234">
        <ele>1544.408</ele>
        <time>2020-01-11T14:45:17Z</time>
      </trkpt>
      <trkpt lat="-39.875464" lon="-71.554872">
        <ele>1569.696</ele>
        <time>2020-01-11T14:45:57Z</time>
      </trkpt>
      <trkpt lat="-39.875784" lon="-71.553660">
        <ele>1581.471</ele>
        <time>2020-01-11T14:46:37Z</time>
      </trkpt>
      <trkpt lat="-39.876876" lon="-71.552055">
        <ele>1596.678</ele>
        <time>2020-01-11T14:47:17Z</time>
      </trkpt>
      <trkpt lat="-39.877756" lon="-71.551504">
        <ele>1603.644</ele>
        <time>2020-01-11T14:47:57Z</time>
      </trkpt>
      <trkpt lat="-39.877978" lon="-71.550796">
        <ele>1611.664</ele>
        <time>2020-01-11T14:48:37Z</time>
      </trkpt>
      <trkpt lat="-39.878287" lon="-71.550501">
        <ele>1615.817</ele>
        <time>2020-01-11T14:49:17Z</time>
      </trkpt>
      <trkpt lat="-39.878174" lon="-71.550251">
        <ele>1616.677</ele>
        <time>2020-01-11T14:49:57Z</time>
      </trkpt>
      <trkpt lat="-39.878213" lon="-71.549671">
        <ele>1618.053</ele>
        <time>2020-01-11T14:50:37Z</time>
      </trkpt>
      <trkpt lat="-39.878591" lon="-71.549056">
        <ele>1621.634</ele>
        <time>2020-01-11T14:51:17Z</time>
      </trkpt>
      <trkpt lat="-39.879165" lon="-71.548288">
        <ele>1623.855</ele>
        <time>2020-01-11T14:51:57Z</time>
      </trkpt>
      <trkpt lat="-39.880510" lon="-71.546954">
        <ele>1626.610</ele>
        <time>2020-01-11T14:52:37Z</time>
      </trkpt>
      <trkpt lat="-39.880622" lon="-71.547113">
        <ele>1626.808</ele>
        <time>2020-01-11T14:53:17Z</time>
      </trkpt>
      <trkpt lat="-39.880910" lon="-71.546654">
        <ele>1626.654</ele>
        <time>2020-01-11T14:53:57Z</time>
      </trkpt>
      <trkpt lat="-39.881278" lon="-71.546470">
        <ele>1624.859</ele>
        <time>2020-01-11T14:54:37Z</time>
      </trkpt>
      <trkpt lat="-39.881658" lon="-71.545817">
        <ele>1619.466</ele>
        <time>2020-01-11T14:55:17Z</time>
      </trkpt>
      <trkpt lat="-39.881894" lon="-71.545040">
        <ele>1613.632</ele>
        <time>2020-01-11T14:55:57Z</time>
      </trkpt>
      <trkpt lat="-39.882379" lon="-71.544652">
        <ele>1606.692</ele>
        <time>2020-01-11T14:56:37Z</time>
      </trkpt>
      <trkpt lat="-39.882403" lon="-71.544246">
        <ele>1607.255</ele>
        <time>2020-01-11T14:57:17Z</time>
      </trkpt>
      <trkpt lat="-39.883168" lon="-71.543485">
        <ele>1604.025</ele>
        <time>2020-01-11T14:57:57Z</time>
      </trkpt>
      <trkpt lat="-39.883348" lon="-71.543614">
        <ele>1600.821</ele>
        <time>2020-01-11T14:58:37Z</time>
      </trkpt>
      <trkpt lat="-39.883412" lon="-71.543401">
        <ele>1600.475</ele>
        <time>2020-01-11T14:59:17Z</time>
      </trkpt>
      <trkpt lat="-39.883286" lon="-71.543211">
        <ele>1598.828</ele>
        <time>2020-01-11T14:59:57Z</time>
      </trkpt>
      <trkpt lat="-39.883517" lon="-71.542839">
        <ele>1599.220</ele>
        <time>2020-01-11T15:00:37Z</time>
      </trkpt>
      <trkpt lat="-39.883476" lon="-71.542568">
        <ele>1602.608</ele>
        <time>2020-01-11T15:01:17Z</time>
      </trkpt>
      <trkpt lat="-39.883843" lon="-71.542133">
        <ele>1604.438</ele>
        <time>2020-01-11T15:01:57Z</time>
      </trkpt>
      <trkpt lat="-39.884279" lon="-71.541971">
        <ele>1602.683</ele>
        <time>2020-01-11T15:02:37Z</time>
      </trkpt>
      <trkpt lat="-39.885084" lon="-71.542152">
        <ele>1595.880</ele>
        <time>2020-01-11T15:03:17Z</time>
      </trkpt>
      <trkpt lat="-39.886730" lon="-71.541717">
        <ele>1594.846</ele>
        <time>2020-01-11T15:03:57Z</time>
      </trkpt>
      <trkpt lat="-39.887017" lon="-71.541888">
        <ele>1588.686</ele>
        <time>2020-01-11T15:04:37Z</time>
      </trkpt>
      <trkpt lat="-39.887411" lon="-71.541637">
        <ele>1592.449</ele>
        <time>2020-01-11T15:05:17Z</time>
      </trkpt>
      <trkpt lat="-39.887996" lon="-71.541680">
        <ele>1590.419</ele>
        <time>2020-01-11T15:05:57Z</time>
      </trkpt>
      <trkpt lat="-39.888296" lon="-71.541086">
        <ele>1584.865</ele>
        <time>2020-01-11T15:06:37Z</time>
      </trkpt>
      <trkpt lat="-39.888418" lon="-71.541023">
        <ele>1583.866</ele>
        <time>2020-01-11T15:07:17Z</time>
      </trkpt>
      <trkpt lat="-39.888543" lon="-71.541155">
        <ele>1581.429</ele>
        <time>2020-01-11T15:07:57Z</time>
      </trkpt>
      <trkpt lat="-39.888611" lon="-71.541042">
        <ele>1579.421</ele>
        <time>2020-01-11T15:08:37Z</time>
      </trkpt>
      <trkpt lat="-39.888816" lon="-71.540165">
        <ele>1581.208</ele>
        <time>2020-01-11T15:09:17Z</time>
      </trkpt>
      <trkpt lat="-39.889016" lon="-71.539749">
        <ele>1576.067</ele>
        <time>2020-01-11T15:09:57Z</time>
      </trkpt>
      <trkpt lat="-39.889198" lon="-71.539816">
        <ele>1572.882</ele>
        <time>2020-01-11T15:10:37Z</time>
      </trkpt>
      <trkpt lat="-39.889082" lon="-71.539648">
        <ele>1574.649</ele>
        <time>2020-01-11T15:11:17Z</time>
      </trkpt>
      <trkpt lat="-39.889185" lon="-71.539474">
        <ele>1576.095</ele>
        <time>2020-01-11T15:11:57Z</time>
      </trkpt>
      <trkpt lat="-39.889391" lon="-71.539495">
        <ele>1575.435</ele>
        <time>2020-01-11T15:12:37Z</time>
      </trkpt>
      <trkpt lat="-39.889722" lon="-71.539034">
        <ele>1581.658</ele>
        <time>2020-01-11T15:13:17Z</time>
      </trkpt>
      <trkpt lat="-39.889815" lon="-71.539139">
        <ele>1582.068</ele>
        <time>2020-01-11T15:13:57Z</time>
      </trkpt>
      <trkpt lat="-39.889875" lon="-71.538999">
        <ele>1582.264</ele>
        <time>2020-01-11T15:14:37Z</time>
      </trkpt>
      <trkpt lat="-39.890376" lon="-71.538945">
        <ele>1577.075</ele>
        <time>2020-01-11T15:15:17Z</time>
      </trkpt>
      <trkpt lat="-39.891436" lon="-71.539216">
        <ele>1578.628</ele>
        <time>2020-01-11T15:15:57Z</time>
      </trkpt>
      <trkpt lat="-39.891963" lon="-71.539594">
        <ele>1577.220</ele>
        <time>2020-01-11T15:16:37Z</time>
      </trkpt>
      <trkpt lat="-39.892569" lon="-71.539723">
        <ele>1562.008</ele>
        <time>2020-01-11T15:17:17Z</time>
      </trkpt>
      <trkpt lat="-39.892643" lon="-71.539924">
        <ele>1555.868</ele>
        <time>2020-01-11T15:17:57Z</time>
      </trkpt>
      <trkpt lat="-39.892722" lon="-71.539733">
        <ele>1555.473</ele>
        <time>2020-01-11T15:18:37Z</time>
      </trkpt>
      <trkpt lat="-39.892887" lon="-71.539725">
        <ele>1555.020</ele>
        <time>2020-01-11T15:19:17Z</time>
      </trkpt>
      <trkpt lat="-39.893400" lon="-71.540173">
        <ele>1567.226</ele>
        <time>2020-01-11T15:19:57Z</time>
      </trkpt>
      <trkpt lat="-39.893834" lon="-71.540109">
        <ele>1567.676</ele>
        <time>2020-01-11T15:20:37Z</time>
      </trkpt>
      <trkpt lat="-39.894801" lon="-71.540268">
        <ele>1554.079</ele>
        <time>2020-01-11T15:21:17Z</time>
      </trkpt>
      <trkpt lat="-39.895297" lon="-71.539990">
        <ele>1532.069</ele>
        <time>2020-01-11T15:21:57Z</time>
      </trkpt>
      <trkpt lat="-39.895450" lon="-71.539597">
        <ele>1517.015</ele>
        <time>2020-01-11T15:22:37Z</time>
      </trkpt>
      <trkpt lat="-39.895561" lon="-71.539748">
        <ele>1515.495</ele>
        <time>2020-01-11T15:23:17Z</time>
      </trkpt>
      <trkpt lat="-39.895808" lon="-71.539708">
        <ele>1513.249</ele>
        <time>2020-01-11T15:23:57Z</time>
      </trkpt>
      <trkpt lat="-39.896208" lon="-71.539927">
        <ele>1513.423</ele>
        <time>2020-01-11T15:24:37Z</time>
      </trkpt>
      <trkpt lat="-39.896573" lon="-71.539834">
        <ele>1510.208</ele>
        <time>2020-01-11T15:25:17Z</time>
      </trkpt>
      <trkpt lat="-39.896847" lon="-71.540170">
        <ele>1506.810</ele>
        <time>2020-01-11T15:25:57Z</time>
      </trkpt>
      <trkpt lat="-39.897160" lon="-71.540188">
        <ele>1502.645</ele>
        <time>2020-01-11T15:26:37Z</time>
      </trkpt>
      <trkpt lat="-39.897563" lon="-71.540430">
        <ele>1495.452</ele>
        <time>2020-01-11T15:27:17Z</time>
      </trkpt>
      <trkpt lat="-39.898122" lon="-71.540274">
        <ele>1485.238</ele>
        <time>2020-01-11T15:27:57Z</time>
      </trkpt>
      <trkpt lat="-39.898580" lon="-71.540635">
        <ele>1486.838</ele>
        <time>2020-01-11T15:28:37Z</time>
      </trkpt>
      <trkpt lat="-39.899007" lon="-71.540580">
        <ele>1484.691</ele>
        <time>2020-01-11T15:29:17Z</time>
      </trkpt>
      <trkpt lat="-39.899035" lon="-71.540421">
        <ele>1484.061</ele>
        <time>2020-01-11T15:29:57Z</time>
      </trkpt>
      <trkpt lat="-39.899772" lon="-71.540824">
        <ele>1487.867</ele>
        <time>2020-01-11T15:30:37Z</time>
      </trkpt>
      <trkpt lat="-39.900479" lon="-71.540805">
        <ele>1484.265</ele>
        <time>2020-01-11T15:31:17Z</time>
      </trkpt>
      <trkpt lat="-39.900645" lon="-71.541241">
        <ele>1489.668</ele>
        <time>2020-01-11T15:31:57Z</time>
      </trkpt>
      <trkpt lat="-39.900663" lon="-71.541121">
        <ele>1489.214</ele>
        <time>2020-01-11T15:32:37Z</time>
      </trkpt>
      <trkpt lat="-39.901115" lon="-71.541246">
        <ele>1486.808</ele>
        <time>2020-01-11T15:33:17Z</time>
      </trkpt>
      <trkpt lat="-39.901421" lon="-71.541056">
        <ele>1482.827</ele>
        <time>2020-01-11T15:33:57Z</time>
      </trkpt>
      <trkpt lat="-39.901677" lon="-71.541399">
        <ele>1484.622</ele>
        <time>2020-01-11T15:34:37Z</time>
      </trkpt>
      <trkpt lat="-39.901739" lon="-71.541054">
        <ele>1484.639</ele>
        <time>2020-01-11T15:35:17Z</time>
      </trkpt>
      <trkpt lat="-39.901970" lon="-71.541214">
        <ele>1485.245</ele>
        <time>2020-01-11T15:35:57Z</time>
      </trkpt>
      <trkpt lat="-39.902012" lon="-71.540947">
        <ele>1483.455</ele>
        <time>2020-01-11T15:36:37Z</time>
      </trkpt>
      <trkpt lat="-39.902609" lon="-71.540447">
        <ele>1482.098</ele>
        <time>2020-01-11T15:37:17Z</time>
      </trkpt>
      <trkpt lat="-39.902825" lon="-71.539821">
        <ele>1481.258</ele>
        <time>2020-01-11T15:37:57Z</time>
      </trkpt>
      <trkpt lat="-39.903173" lon="-71.539648">
        <ele>1481.854</ele>
        <time>2020-01-11T15:38:37Z</time>
      </trkpt>
      <trkpt lat="-39.904094" lon="-71.539633">
        <ele>1468.824</ele>
        <time>2020-01-11T15:39:17Z</time>
      </trkpt>
      <trkpt lat="-39.904277" lon="-71.539786">
        <ele>1474.404</ele>
        <time>2020-01-11T15:39:57Z</time>
      </trkpt>
      <trkpt lat="-39.904624" lon="-71.539627">
        <ele>1483.414</ele>
        <time>2020-01-11T15:40:37Z</time>
      </trkpt>
      <trkpt lat="-39.904984" lon="-71.539951">
        <ele>1486.208</ele>
        <time>2020-01-11T15:41:17Z</time>
      </trkpt>
      <trkpt lat="-39.905029" lon="-71.539806">
        <ele>1488.263</ele>
        <time>2020-01-11T15:41:57Z</time>
      </trkpt>
      <trkpt lat="-39.905326" lon="-71.539745">
        <ele>1486.268</ele>
        <time>2020-01-11T15:42:37Z</time>
      </trkpt>
      <trkpt lat="-39.905717" lon="-71.540171">
        <ele>1487.045</ele>
        <time>2020-01-11T15:43:17Z</time>
      </trkpt>
      <trkpt lat="-39.905780" lon="-71.539737">
        <ele>1477.491</ele>
        <time>2020-01-11T15:43:57Z</time>
      </trkpt>
      <trkpt lat="-39.906099" lon="-71.539716">
        <ele>1475.451</ele>
        <time>2020-01-11T15:44:37Z</time>
      </trkpt>
      <trkpt lat="-39.906147" lon="-71.539256">
        <ele>1469.814</ele>
        <time>2020-01-11T15:45:17Z</time>
      </trkpt>
      <trkpt lat="-39.906518" lon="-71.539283">
        <ele>1465.044</ele>
        <time>2020-01-11T15:45:57Z</time>
      </trkpt>
      <trkpt lat="-39.906594" lon="-71.539069">
        <ele>1462.430</ele>
        <time>2020-01-11T15:46:37Z</time>
      </trkpt>
      <trkpt lat="-39.907240" lon="-71.538670">
        <ele>1452.816</ele>
        <time>2020-01-11T15:47:17Z</time>
      </trkpt>
      <trkpt lat="-39.907448" lon="-71.538320">
        <ele>1450.876</ele>
        <time>2020-01-11T15:47:57Z</time>
      </trkpt>
      <trkpt lat="-39.907752" lon="-71.538331">
        <ele>1448.613</ele>
        <time>2020-01-11T15:48:37Z</time>
      </trkpt>
      <trkpt lat="-39.907964" lon="-71.537987">
        <ele>1444.408</ele>
        <time>2020-01-11T15:49:17Z</time>
      </trkpt>
      <trkpt lat="-39.908677" lon="-71.538077">
        <ele>1446.282</ele>
        <time>2020-01-11T15:49:57Z</time>
      </trkpt>
      <trkpt lat="-39.908974" lon="-71.537833">
        <ele>1442.667</ele>
        <time>2020-01-11T15:50:37Z</time>
      </trkpt>
      <trkpt lat="-39.909013" lon="-71.537505">
        <ele>1439.684</ele>
        <time>2020-01-11T15:51:17Z</time>
      </trkpt>
      <trkpt lat="-39.909717" lon="-71.537178">
        <ele>1434.880</ele>
        <time>2020-01-11T15:51:57Z</time>
      </trkpt>
      <trkpt lat="-39.910214" lon="-71.537155">
        <ele>1440.610</ele>
        <time>2020-01-11T15:52:37Z</time>
      </trkpt>
      <trkpt lat="-39.910724" lon="-71.536775">
        <ele>1434.213</ele>
        <time>2020-01-11T15:53:17Z</time>
      </trkpt>
      <trkpt lat="-39.910984" lon="-71.536182">
        <ele>1431.273</ele>
        <time>2020-01-11T15:53:57Z</time>
      </trkpt>
      <trkpt lat="-39.911545" lon="-71.535870">
        <ele>1429.899</ele>
        <time>2020-01-11T15:54:37Z</time>
      </trkpt>
      <trkpt lat="-39.911731" lon="-71.535598">
        <ele>1423.668</ele>
        <time>2020-01-11T15:55:17Z</time>
      </trkpt>
      <trkpt lat="-39.912011" lon="-71.535834">
        <ele>1414.842</ele>
        <time>2020-01-11T15:55:57Z</time>
      </trkpt>
      <trkpt lat="-39.912478" lon="-71.535902">
        <ele>1410.226</ele>
        <time>2020-01-11T15:56:37Z</time>
      </trkpt>
      <trkpt lat="-39.912774" lon="-71.536273">
        <ele>1415.408</ele>
        <time>2020-01-11T15:57:17Z</time>
      </trkpt>
      <trkpt lat="-39.913055" lon="-71.536218">
        <ele>1413.817</ele>
        <time>2020-01-11T15:57:57Z</time>
      </trkpt>
      <trkpt lat="-39.913036" lon="-71.536042">
        <ele>1412.852</ele>
        <time>2020-01-11T15:58:37Z</time>
      </trkpt>
      <trkpt lat="-39.913500" lon="-71.535763">
        <ele>1410.069</ele>
        <time>2020-01-11T15:59:17Z</time>
      </trkpt>
      <trkpt lat="-39.913797" lon="-71.535136">
        <ele>1405.655</ele>
        <time>2020-01-11T15:59:57Z</time>
      </trkpt>
      <trkpt lat="-39.913965" lon="-71.535230">
        <ele>1406.015</ele>
        <time>2020-01-11T16:00:37Z</time>
      </trkpt>
      <trkpt lat="-39.914436" lon="-71.534862">
        <ele>1400.888</ele>
        <time>2020-01-11T16:01:17Z</time>
      </trkpt>
      <trkpt lat="-39.914669" lon="-71.535027">
        <ele>1397.428</ele>
        <time>2020-01-11T16:01:57Z</time>
      </trkpt>
      <trkpt lat="-39.915141" lon="-71.534700">
        <ele>1388.054</ele>
        <time>2020-01-11T16:02:37Z</time>
      </trkpt>
      <trkpt lat="-39.915353" lon="-71.534040">
        <ele>1374.415</ele>
        <time>2020-01-11T16:03:17Z</time>
      </trkpt>
      <trkpt lat="-39.915533" lon="-71.533962">
        <ele>1368.265</ele>
        <time>2020-01-11T16:03:57Z</time>
      </trkpt>
      <trkpt lat="-39.915499" lon="-71.533701">
        <ele>1352.011</ele>
        <time>2020-01-11T16:04:37Z</time>
      </trkpt>
      <trkpt lat="-39.915947" lon="-71.533434">
        <ele>1342.808</ele>
        <time>2020-01-11T16:05:17Z</time>
      </trkpt>
      <trkpt lat="-39.916250" lon="-71.533472">
        <ele>1336.842</ele>
        <time>2020-01-11T16:05:57Z</time>
      </trkpt>
      <trkpt lat="-39.916576" lon="-71.533156">
        <ele>1328.497</ele>
        <time>2020-01-11T16:06:37Z</time>
      </trkpt>
      <trkpt lat="-39.916633" lon="-71.533302">
        <ele>1326.274</ele>
        <time>2020-01-11T16:07:17Z</time>
      </trkpt>
      <trkpt lat="-39.917464" lon="-71.532592">
        <ele>1300.640</ele>
        <time>2020-01-11T16:07:57Z</time>
      </trkpt>
      <trkpt lat="-39.917556" lon="-71.532586">
        <ele>1297.030</ele>
        <time>2020-01-11T16:08:37Z</time>
      </trkpt>
      <trkpt lat="-39.917699" lon="-71.533495">
        <ele>1297.043</ele>
        <time>2020-01-11T16:09:17Z</time>
      </trkpt>
      <trkpt lat="-39.918013" lon="-71.533676">
        <ele>1297.653</ele>
        <time>2020-01-11T16:09:57Z</time>
      </trkpt>
      <trkpt lat="-39.918263" lon="-71.533291">
        <ele>1296.619</ele>
        <time>2020-01-11T16:10:37Z</time>
      </trkpt>
      <trkpt lat="-39.918921" lon="-71.532859">
        <ele>1293.434</ele>
        <time>2020-01-11T16:11:17Z</time>
      </trkpt>
      <trkpt lat="-39.919153" lon="-71.533014">
        <ele>1293.055</ele>
        <time>2020-01-11T16:11:57Z</time>
      </trkpt>
      <trkpt lat="-39.919382" lon="-71.532694">
        <ele>1292.010</ele>
        <time>2020-01-11T16:12:37Z</time>
      </trkpt>
      <trkpt lat="-39.919543" lon="-71.532827">
        <ele>1291.408</ele>
        <time>2020-01-11T16:13:17Z</time>
      </trkpt>
      <trkpt lat="-39.919938" lon="-71.532488">
        <ele>1290.824</ele>
        <time>2020-01-11T16:13:57Z</time>
      </trkpt>
      <trkpt lat="-39.920132" lon="-71.532496">
        <ele>1290.679</ele>
        <time>2020-01-11T16:14:37Z</time>
      </trkpt>
      <trkpt lat="-39.920775" lon="-71.532082">
        <ele>1289.876</ele>
        <time>2020-01-11T16:15:17Z</time>
      </trkpt>
      <trkpt lat="-39.921422" lon="-71.532013">
        <ele>1290.482</ele>
        <time>2020-01-11T16:15:57Z</time>
      </trkpt>
      <trkpt lat="-39.921681" lon="-71.531783">
        <ele>1289.032</ele>
        <time>2020-01-11T16:16:37Z</time>
      </trkpt>
      <trkpt lat="-39.921894" lon="-71.531897">
        <ele>1288.445</ele>
        <time>2020-01-11T16:17:17Z</time>
      </trkpt>
      <trkpt lat="-39.922783" lon="-71.531722">
        <ele>1283.855</ele>
        <time>2020-01-11T16:17:57Z</time>
      </trkpt>
      <trkpt lat="-39.923378" lon="-71.531440">
        <ele>1276.461</ele>
        <time>2020-01-11T16:18:37Z</time>
      </trkpt>
      <trkpt lat="-39.923500" lon="-71.531125">
        <ele>1275.858</ele>
        <time>2020-01-11T16:19:17Z</time>
      </trkpt>
      <trkpt lat="-39.923631" lon="-71.531337">
        <ele>1277.652</ele>
        <time>2020-01-11T16:19:57Z</time>
      </trkpt>
      <trkpt lat="-39.924592" lon="-71.531747">
        <ele>1286.417</ele>
        <time>2020-01-11T16:20:37Z</time>
      </trkpt>
      <trkpt lat="-39.924745" lon="-71.531587">
        <ele>1286.808</ele>
        <time>2020-01-11T16:21:17Z</time>
      </trkpt>
      <trkpt lat="-39.924652" lon="-71.531076">
        <ele>1283.656</ele>
        <time>2020-01-11T16:21:57Z</time>
      </trkpt>
      <trkpt lat="-39.925264" lon="-71.529571">
        <ele>1285.071</ele>
        <time>2020-01-11T16:22:37Z</time>
      </trkpt>
      <trkpt lat="-39.925669" lon="-71.528027">
        <ele>1281.678</ele>
        <time>2020-01-11T16:23:17Z</time>
      </trkpt>
      <trkpt lat="-39.925936" lon="-71.527934">
        <ele>1282.054</ele>
        <time>2020-01-11T16:23:57Z</time>
      </trkpt>
      <trkpt lat="-39.926401" lon="-71.526870">
        <ele>1280.844</ele>
        <time>2020-01-11T16:24:37Z</time>
      </trkpt>
      <trkpt lat="-39.926881" lon="-71.526393">
        <ele>1280.017</ele>
        <time>2020-01-11T16:25:17Z</time>
      </trkpt>
      <trkpt lat="-39.927676" lon="-71.525034">
        <ele>1280.247</ele>
        <time>2020-01-11T16:25:57Z</time>
      </trkpt>
      <trkpt lat="-39.928228" lon="-71.524560">
        <ele>1282.673</ele>
        <time>2020-01-11T16:26:37Z</time>
      </trkpt>
      <trkpt lat="-39.929093" lon="-71.524278">
        <ele>1286.217</ele>
        <time>2020-01-11T16:27:17Z</time>
      </trkpt>
      <trkpt lat="-39.929111" lon="-71.523732">
        <ele>1286.087</ele>
        <time>2020-01-11T16:27:57Z</time>
      </trkpt>
      <trkpt lat="-39.929588" lon="-71.522451">
        <ele>1282.215</ele>
        <time>2020-01-11T16:28:37Z</time>
      </trkpt>
      <trkpt lat="-39.930274" lon="-71.521988">
        <ele>1278.608</ele>
        <time>2020-01-11T16:29:17Z</time>
      </trkpt>
      <trkpt lat="-39.930690" lon="-71.522060">
        <ele>1284.482</ele>
        <time>2020-01-11T16:29:57Z</time>
      </trkpt>
      <trkpt lat="-39.930558" lon="-71.521794">
        <ele>1281.897</ele>
        <time>2020-01-11T16:30:37Z</time>
      </trkpt>
      <trkpt lat="-39.931048" lon="-71.521375">
        <ele>1280.624</ele>
        <time>2020-01-11T16:31:17Z</time>
      </trkpt>
      <trkpt lat="-39.931836" lon="-71.521256">
        <ele>1279.290</ele>
        <time>2020-01-11T16:31:57Z</time>
      </trkpt>
      <trkpt lat="-39.932362" lon="-71.520943">
        <ele>1278.860</ele>
        <time>2020-01-11T16:32:37Z</time>
      </trkpt>
      <trkpt lat="-39.932642" lon="-71.520458">
        <ele>1275.693</ele>
        <time>2020-01-11T16:33:17Z</time>
      </trkpt>
      <trkpt lat="-39.932596" lon="-71.519837">
        <ele>1269.853</ele>
        <time>2020-01-11T16:33:57Z</time>
      </trkpt>
      <trkpt lat="-39.932802" lon="-71.519363">
        <ele>1270.089</ele>
        <time>2020-01-11T16:34:37Z</time>
      </trkpt>
      <trkpt lat="-39.933545" lon="-71.518980">
        <ele>1265.236</ele>
        <time>2020-01-11T16:35:17Z</time>
      </trkpt>
      <trkpt lat="-39.933742" lon="-71.518718">
        <ele>1265.017</ele>
        <time>2020-01-11T16:35:57Z</time>
      </trkpt>
      <trkpt lat="-39.933942" lon="-71.518741">
        <ele>1267.418</ele>
        <time>2020-01-11T16:36:37Z</time>
      </trkpt>
      <trkpt lat="-39.933947" lon="-71.518460">
        <ele>1265.608</ele>
        <time>2020-01-11T16:37:17Z</time>
      </trkpt>
      <trkpt lat="-39.934361" lon="-71.518171">
        <ele>1264.064</ele>
        <time>2020-01-11T16:37:57Z</time>
      </trkpt>
      <trkpt lat="-39.934642" lon="-71.517643">
        <ele>1264.439</ele>
        <time>2020-01-11T16:38:37Z</time>
      </trkpt>
      <trkpt lat="-39.935089" lon="-71.517498">
        <ele>1269.436</ele>
        <time>2020-01-11T16:39:17Z</time>
      </trkpt>
      <trkpt lat="-39.935386" lon="-71.517212">
        <ele>1272.292</ele>
        <time>2020-01-11T16:39:57Z</time>
      </trkpt>
      <trkpt lat="-39.936094" lon="-71.516304">
        <ele>1274.282</ele>
        <time>2020-01-11T16:40:37Z</time>
      </trkpt>
      <trkpt lat="-39.936149" lon="-71.516049">
        <ele>1270.085</ele>
        <time>2020-01-11T16:41:17Z</time>
      </trkpt>
      <trkpt lat="-39.937118" lon="-71.515031">
        <ele>1266.275</ele>
        <time>2020-01-11T16:41:57Z</time>
      </trkpt>
      <trkpt lat="-39.937452" lon="-71.514926">
        <ele>1263.851</ele>
        <time>2020-01-11T16:42:37Z</time>
      </trkpt>
      <trkpt lat="-39.938360" lon="-71.514084">
        <ele>1252.091</ele>
        <time>2020-01-11T16:43:17Z</time>
      </trkpt>
      <trkpt lat="-39.938670" lon="-71.514251">
        <ele>1252.681</ele>
        <time>2020-01-11T16:43:57Z</time>
      </trkpt>
      <trkpt lat="-39.939087" lon="-71.514057">
        <ele>1251.419</ele>
        <time>2020-01-11T16:44:37Z</time>
      </trkpt>
      <trkpt lat="-39.939885" lon="-71.514060">
        <ele>1255.208</ele>
        <time>2020-01-11T16:45:17Z</time>
      </trkpt>
      <trkpt lat="-39.940295" lon="-71.513811">
        <ele>1255.620</ele>
        <time>2020-01-11T16:45:57Z</time>
      </trkpt>
      <trkpt lat="-39.941078" lon="-71.513907">
        <ele>1253.685</ele>
        <time>2020-01-11T16:46:37Z</time>
      </trkpt>
      <trkpt lat="-39.941682" lon="-71.513112">
        <ele>1249.262</ele>
        <time>2020-01-11T16:47:17Z</time>
      </trkpt>
      <trkpt lat="-39.941914" lon="-71.513163">
        <ele>1248.618</ele>
        <time>2020-01-11T16:47:57Z</time>
      </trkpt>
      <trkpt lat="-39.942430" lon="-71.512969">
        <ele>1248.238</ele>
        <time>2020-01-11T16:48:37Z</time>
      </trkpt>
      <trkpt lat="-39.942662" lon="-71.512510">
        <ele>1246.891</ele>
        <time>2020-01-11T16:49:17Z</time>
      </trkpt>
      <trkpt lat="-39.942662" lon="-71.512510">
        <ele>1246.874</ele>
        <time>2020-01-11T13:39:08Z</time>
      </trkpt>
      <trkpt lat="-39.942706" lon="-71.512805">
        <ele>1246.856</ele>
        <time>2020-01-11T13:39:48Z</time>
      </trkpt>
      <trkpt lat="-39.942940" lon="-71.512943">
        <ele>1247.221</ele>
        <time>2020-01-11T13:40:28Z</time>
      </trkpt>
      <trkpt lat="-39.943583" lon="-71.512557">
        <ele>1245.208</ele>
        <time>2020-01-11T13:41:08Z</time>
      </trkpt>
      <trkpt lat="-39.943845" lon="-71.512551">
        <ele>1246.438</ele>
        <time>2020-01-11T13:41:48Z</time>
      </trkpt>
      <trkpt lat="-39.944409" lon="-71.512578">
        <ele>1249.433</ele>
        <time>2020-01-11T13:42:28Z</time>
      </trkpt>
      <trkpt lat="-39.945045" lon="-71.512984">
        <ele>1255.291</ele>
        <time>2020-01-11T13:43:08Z</time>
      </trkpt>
      <trkpt lat="-39.945780" lon="-71.513005">
        <ele>1258.457</ele>
        <time>2020-01-11T13:43:48Z</time>
      </trkpt>
      <trkpt lat="-39.946060" lon="-71.512848">
        <ele>1259.697</ele>
        <time>2020-01-11T13:44:28Z</time>
      </trkpt>
      <trkpt lat="-39.946145" lon="-71.513024">
        <ele>1260.497</ele>
        <time>2020-01-11T13:45:08Z</time>
      </trkpt>
      <trkpt lat="-39.947680" lon="-71.513032">
        <ele>1265.820</ele>
        <time>2020-01-11T13:45:48Z</time>
      </trkpt>
      <trkpt lat="-39.947929" lon="-71.512419">
        <ele>1261.449</ele>
        <time>2020-01-11T13:46:28Z</time>
      </trkpt>
      <trkpt lat="-39.948230" lon="-71.512133">
        <ele>1258.455</ele>
        <time>2020-01-11T13:47:08Z</time>
      </trkpt>
      <trkpt lat="-39.948569" lon="-71.512122">
        <ele>1259.407</ele>
        <time>2020-01-11T13:47:48Z</time>
      </trkpt>
      <trkpt lat="-39.948646" lon="-71.512262">
        <ele>1258.217</ele>
        <time>2020-01-11T13:48:28Z</time>
      </trkpt>
      <trkpt lat="-39.949106" lon="-71.512049">
        <ele>1261.008</ele>
        <time>2020-01-11T13:49:08Z</time>
      </trkpt>
      <trkpt lat="-39.949923" lon="-71.511090">
        <ele>1250.446</ele>
        <time>2020-01-11T13:49:48Z</time>
      </trkpt>
      <trkpt lat="-39.950631" lon="-71.510732">
        <ele>1243.071</ele>
        <time>2020-01-11T13:50:28Z</time>
      </trkpt>
      <trkpt lat="-39.950687" lon="-71.511009">
        <ele>1243.639</ele>
        <time>2020-01-11T13:51:08Z</time>
      </trkpt>
      <trkpt lat="-39.950915" lon="-71.511162">
        <ele>1244.425</ele>
        <time>2020-01-11T13:51:48Z</time>
      </trkpt>
      <trkpt lat="-39.951159" lon="-71.510954">
        <ele>1246.455</ele>
        <time>2020-01-11T13:52:28Z</time>
      </trkpt>
      <trkpt lat="-39.951667" lon="-71.511025">
        <ele>1252.695</ele>
        <time>2020-01-11T13:53:08Z</time>
      </trkpt>
      <trkpt lat="-39.953265" lon="-71.510374">
        <ele>1251.288</ele>
        <time>2020-01-11T13:53:48Z</time>
      </trkpt>
      <trkpt lat="-39.953575" lon="-71.510564">
        <ele>1254.087</ele>
        <time>2020-01-11T13:54:28Z</time>
      </trkpt>
      <trkpt lat="-39.953964" lon="-71.510451">
        <ele>1252.848</ele>
        <time>2020-01-11T13:55:08Z</time>
      </trkpt>
      <trkpt lat="-39.954153" lon="-71.510139">
        <ele>1253.261</ele>
        <time>2020-01-11T13:55:48Z</time>
      </trkpt>
      <trkpt lat="-39.954307" lon="-71.510152">
        <ele>1254.017</ele>
        <time>2020-01-11T13:56:28Z</time>
      </trkpt>
      <trkpt lat="-39.955256" lon="-71.509351">
        <ele>1251.008</ele>
        <time>2020-01-11T13:57:08Z</time>
      </trkpt>
      <trkpt lat="-39.955502" lon="-71.509546">
        <ele>1252.255</ele>
        <time>2020-01-11T13:57:48Z</time>
      </trkpt>
      <trkpt lat="-39.955845" lon="-71.509533">
        <ele>1255.480</ele>
        <time>2020-01-11T13:58:28Z</time>
      </trkpt>
      <trkpt lat="-39.956135" lon="-71.509308">
        <ele>1257.038</ele>
        <time>2020-01-11T13:59:08Z</time>
      </trkpt>
      <trkpt lat="-39.956008" lon="-71.509041">
        <ele>1254.044</ele>
        <time>2020-01-11T13:59:48Z</time>
      </trkpt>
      <trkpt lat="-39.956111" lon="-71.508266">
        <ele>1250.254</ele>
        <time>2020-01-11T14:00:28Z</time>
      </trkpt>
      <trkpt lat="-39.956516" lon="-71.507512">
        <ele>1247.044</ele>
        <time>2020-01-11T14:01:08Z</time>
      </trkpt>
      <trkpt lat="-39.957262" lon="-71.506775">
        <ele>1246.087</ele>
        <time>2020-01-11T14:01:48Z</time>
      </trkpt>
      <trkpt lat="-39.957501" lon="-71.506850">
        <ele>1247.896</ele>
        <time>2020-01-11T14:02:28Z</time>
      </trkpt>
      <trkpt lat="-39.957733" lon="-71.506719">
        <ele>1248.034</ele>
        <time>2020-01-11T14:03:08Z</time>
      </trkpt>
      <trkpt lat="-39.958017" lon="-71.506899">
        <ele>1250.855</ele>
        <time>2020-01-11T14:03:48Z</time>
      </trkpt>
      <trkpt lat="-39.958152" lon="-71.506779">
        <ele>1252.410</ele>
        <time>2020-01-11T14:04:28Z</time>
      </trkpt>
      <trkpt lat="-39.957991" lon="-71.505429">
        <ele>1243.808</ele>
        <time>2020-01-11T14:05:08Z</time>
      </trkpt>
      <trkpt lat="-39.959094" lon="-71.503951">
        <ele>1242.844</ele>
        <time>2020-01-11T14:05:48Z</time>
      </trkpt>
      <trkpt lat="-39.959591" lon="-71.502482">
        <ele>1239.289</ele>
        <time>2020-01-11T14:06:28Z</time>
      </trkpt>
      <trkpt lat="-39.960052" lon="-71.502316">
        <ele>1242.877</ele>
        <time>2020-01-11T14:07:08Z</time>
      </trkpt>
      <trkpt lat="-39.960565" lon="-71.502338">
        <ele>1246.693</ele>
        <time>2020-01-11T14:07:48Z</time>
      </trkpt>
      <trkpt lat="-39.960964" lon="-71.502641">
        <ele>1253.483</ele>
        <time>2020-01-11T14:08:28Z</time>
      </trkpt>
      <trkpt lat="-39.961235" lon="-71.502669">
        <ele>1257.633</ele>
        <time>2020-01-11T14:09:08Z</time>
      </trkpt>
      <trkpt lat="-39.961264" lon="-71.502529">
        <ele>1259.216</ele>
        <time>2020-01-11T14:09:48Z</time>
      </trkpt>
      <trkpt lat="-39.961768" lon="-71.502641">
        <ele>1266.235</ele>
        <time>2020-01-11T14:10:28Z</time>
      </trkpt>
      <trkpt lat="-39.962131" lon="-71.503034">
        <ele>1279.044</ele>
        <time>2020-01-11T14:11:08Z</time>
      </trkpt>
      <trkpt lat="-39.962497" lon="-71.503096">
        <ele>1284.405</ele>
        <time>2020-01-11T14:11:48Z</time>
      </trkpt>
      <trkpt lat="-39.963094" lon="-71.502909">
        <ele>1293.215</ele>
        <time>2020-01-11T14:12:28Z</time>
      </trkpt>
      <trkpt lat="-39.963670" lon="-71.503123">
        <ele>1302.808</ele>
        <time>2020-01-11T14:13:08Z</time>
      </trkpt>
      <trkpt lat="-39.963832" lon="-71.503343">
        <ele>1307.295</ele>
        <time>2020-01-11T14:13:48Z</time>
      </trkpt>
      <trkpt lat="-39.964752" lon="-71.503011">
        <ele>1314.690</ele>
        <time>2020-01-11T14:14:28Z</time>
      </trkpt>
      <trkpt lat="-39.964873" lon="-71.502685">
        <ele>1319.278</ele>
        <time>2020-01-11T14:15:08Z</time>
      </trkpt>
      <trkpt lat="-39.965542" lon="-71.502327">
        <ele>1322.654</ele>
        <time>2020-01-11T14:15:48Z</time>
      </trkpt>
      <trkpt lat="-39.965567" lon="-71.502164">
        <ele>1327.064</ele>
        <time>2020-01-11T14:16:28Z</time>
      </trkpt>
      <trkpt lat="-39.966002" lon="-71.502327">
        <ele>1337.034</ele>
        <time>2020-01-11T14:17:08Z</time>
      </trkpt>
      <trkpt lat="-39.966941" lon="-71.501787">
        <ele>1342.017</ele>
        <time>2020-01-11T14:17:48Z</time>
      </trkpt>
      <trkpt lat="-39.967186" lon="-71.501206">
        <ele>1340.266</ele>
        <time>2020-01-11T14:18:28Z</time>
      </trkpt>
      <trkpt lat="-39.967584" lon="-71.500921">
        <ele>1341.057</ele>
        <time>2020-01-11T14:19:08Z</time>
      </trkpt>
      <trkpt lat="-39.968357" lon="-71.499741">
        <ele>1336.800</ele>
        <time>2020-01-11T14:19:48Z</time>
      </trkpt>
      <trkpt lat="-39.969688" lon="-71.498355">
        <ele>1335.820</ele>
        <time>2020-01-11T14:20:28Z</time>
      </trkpt>
      <trkpt lat="-39.969750" lon="-71.498469">
        <ele>1333.408</ele>
        <time>2020-01-11T14:21:08Z</time>
      </trkpt>
      <trkpt lat="-39.970128" lon="-71.497953">
        <ele>1334.446</ele>
        <time>2020-01-11T14:21:48Z</time>
      </trkpt>
      <trkpt lat="-39.970919" lon="-71.497361">
        <ele>1330.081</ele>
        <time>2020-01-11T14:22:28Z</time>
      </trkpt>
      <trkpt lat="-39.972372" lon="-71.495809">
        <ele>1325.649</ele>
        <time>2020-01-11T14:23:08Z</time>
      </trkpt>
      <trkpt lat="-39.974350" lon="-71.494877">
        <ele>1319.215</ele>
        <time>2020-01-11T14:23:48Z</time>
      </trkpt>
      <trkpt lat="-39.975096" lon="-71.494677">
        <ele>1313.025</ele>
        <time>2020-01-11T14:24:28Z</time>
      </trkpt>
      <trkpt lat="-39.975210" lon="-71.494465">
        <ele>1310.265</ele>
        <time>2020-01-11T14:25:08Z</time>
      </trkpt>
      <trkpt lat="-39.976635" lon="-71.493475">
        <ele>1290.068</ele>
        <time>2020-01-11T14:25:48Z</time>
      </trkpt>
      <trkpt lat="-39.976825" lon="-71.492980">
        <ele>1282.217</ele>
        <time>2020-01-11T14:26:28Z</time>
      </trkpt>
      <trkpt lat="-39.977867" lon="-71.492309">
        <ele>1265.434</ele>
        <time>2020-01-11T14:27:08Z</time>
      </trkpt>
      <trkpt lat="-39.978658" lon="-71.492583">
        <ele>1251.455</ele>
        <time>2020-01-11T14:27:48Z</time>
      </trkpt>
      <trkpt lat="-39.979684" lon="-71.493821">
        <ele>1237.610</ele>
        <time>2020-01-11T14:28:28Z</time>
      </trkpt>
      <trkpt lat="-39.980143" lon="-71.493815">
        <ele>1235.408</ele>
        <time>2020-01-11T14:29:08Z</time>
      </trkpt>
      <trkpt lat="-39.980725" lon="-71.493314">
        <ele>1234.284</ele>
        <time>2020-01-11T14:29:48Z</time>
      </trkpt>
      <trkpt lat="-39.980980" lon="-71.493470">
        <ele>1226.879</ele>
        <time>2020-01-11T14:30:28Z</time>
      </trkpt>
      <trkpt lat="-39.981134" lon="-71.493251">
        <ele>1222.097</ele>
        <time>2020-01-11T14:31:08Z</time>
      </trkpt>
      <trkpt lat="-39.981331" lon="-71.493354">
        <ele>1217.073</ele>
        <time>2020-01-11T14:31:48Z</time>
      </trkpt>
      <trkpt lat="-39.982406" lon="-71.492774">
        <ele>1203.643</ele>
        <time>2020-01-11T14:32:28Z</time>
      </trkpt>
      <trkpt lat="-39.985219" lon="-71.492167">
        <ele>1187.083</ele>
        <time>2020-01-11T14:33:08Z</time>
      </trkpt>
      <trkpt lat="-39.985933" lon="-71.491400">
        <ele>1184.866</ele>
        <time>2020-01-11T14:33:48Z</time>
      </trkpt>
      <trkpt lat="-39.988472" lon="-71.489948">
        <ele>1183.435</ele>
        <time>2020-01-11T14:34:28Z</time>
      </trkpt>
      <trkpt lat="-39.989997" lon="-71.488754">
        <ele>1182.878</ele>
        <time>2020-01-11T14:35:08Z</time>
      </trkpt>
      <trkpt lat="-39.991588" lon="-71.488362">
        <ele>1173.633</ele>
        <time>2020-01-11T14:35:48Z</time>
      </trkpt>
      <trkpt lat="-39.992986" lon="-71.485121">
        <ele>1177.826</ele>
        <time>2020-01-11T14:36:28Z</time>
      </trkpt>
      <trkpt lat="-39.993419" lon="-71.482729">
        <ele>1179.008</ele>
        <time>2020-01-11T14:37:08Z</time>
      </trkpt>
      <trkpt lat="-39.993775" lon="-71.481544">
        <ele>1178.818</ele>
        <time>2020-01-11T14:37:48Z</time>
      </trkpt>
      <trkpt lat="-39.995127" lon="-71.481153">
        <ele>1179.223</ele>
        <time>2020-01-11T14:38:28Z</time>
      </trkpt>
      <trkpt lat="-39.995967" lon="-71.480674">
        <ele>1177.021</ele>
        <time>2020-01-11T14:39:08Z</time>
      </trkpt>
      <trkpt lat="-39.996548" lon="-71.480659">
        <ele>1174.487</ele>
        <time>2020-01-11T14:39:48Z</time>
      </trkpt>
      <trkpt lat="-39.996807" lon="-71.480246">
        <ele>1172.437</ele>
        <time>2020-01-11T14:40:28Z</time>
      </trkpt>
      <trkpt lat="-39.997187" lon="-71.480101">
        <ele>1174.097</ele>
        <time>2020-01-11T14:41:08Z</time>
      </trkpt>
      <trkpt lat="-39.997413" lon="-71.479827">
        <ele>1176.420</ele>
        <time>2020-01-11T14:41:48Z</time>
      </trkpt>
      <trkpt lat="-39.998218" lon="-71.478182">
        <ele>1183.289</ele>
        <time>2020-01-11T14:42:28Z</time>
      </trkpt>
      <trkpt lat="-39.999570" lon="-71.477000">
        <ele>1188.096</ele>
        <time>2020-01-11T14:43:08Z</time>
      </trkpt>
      <trkpt lat="-40.000605" lon="-71.476423">
        <ele>1188.031</ele>
        <time>2020-01-11T14:43:48Z</time>
      </trkpt>
      <trkpt lat="-40.001987" lon="-71.476016">
        <ele>1183.624</ele>
        <time>2020-01-11T14:44:28Z</time>
      </trkpt>
      <trkpt lat="-40.003615" lon="-71.475932">
        <ele>1189.408</ele>
        <time>2020-01-11T14:45:08Z</time>
      </trkpt>
      <trkpt lat="-40.005513" lon="-71.476203">
        <ele>1201.420</ele>
        <time>2020-01-11T14:45:48Z</time>
      </trkpt>
      <trkpt lat="-40.006332" lon="-71.475918">
        <ele>1202.865</ele>
        <time>2020-01-11T14:46:28Z</time>
      </trkpt>
      <trkpt lat="-40.007798" lon="-71.476831">
        <ele>1200.463</ele>
        <time>2020-01-11T14:47:08Z</time>
      </trkpt>
      <trkpt lat="-40.008377" lon="-71.476567">
        <ele>1201.659</ele>
        <time>2020-01-11T14:47:48Z</time>
      </trkpt>
      <trkpt lat="-40.009020" lon="-71.476688">
        <ele>1201.489</ele>
        <time>2020-01-11T14:48:28Z</time>
      </trkpt>
      <trkpt lat="-40.010015" lon="-71.476295">
        <ele>1193.049</ele>
        <time>2020-01-11T14:49:08Z</time>
      </trkpt>
      <trkpt lat="-40.011591" lon="-71.476208">
        <ele>1176.292</ele>
        <time>2020-01-11T14:49:48Z</time>
      </trkpt>
      <trkpt lat="-40.012552" lon="-71.475844">
        <ele>1172.471</ele>
        <time>2020-01-11T14:50:28Z</time>
      </trkpt>
      <trkpt lat="-40.013268" lon="-71.475373">
        <ele>1170.893</ele>
        <time>2020-01-11T14:51:08Z</time>
      </trkpt>
      <trkpt lat="-40.013959" lon="-71.474318">
        <ele>1169.865</ele>
        <time>2020-01-11T14:51:48Z</time>
      </trkpt>
      <trkpt lat="-40.014191" lon="-71.473162">
        <ele>1170.021</ele>
        <time>2020-01-11T14:52:28Z</time>
      </trkpt>
      <trkpt lat="-40.014495" lon="-71.472612">
        <ele>1167.008</ele>
        <time>2020-01-11T14:53:08Z</time>
      </trkpt>
      <trkpt lat="-40.014386" lon="-71.471517">
        <ele>1171.280</ele>
        <time>2020-01-11T14:53:48Z</time>
      </trkpt>
      <trkpt lat="-40.014829" lon="-71.470173">
        <ele>1178.045</ele>
        <time>2020-01-11T14:54:28Z</time>
      </trkpt>
      <trkpt lat="-40.014803" lon="-71.468826">
        <ele>1176.063</ele>
        <time>2020-01-11T14:55:08Z</time>
      </trkpt>
      <trkpt lat="-40.015116" lon="-71.468164">
        <ele>1174.829</ele>
        <time>2020-01-11T14:55:48Z</time>
      </trkpt>
      <trkpt lat="-40.015227" lon="-71.467119">
        <ele>1175.819</ele>
        <time>2020-01-11T14:56:28Z</time>
      </trkpt>
      <trkpt lat="-40.015400" lon="-71.466940">
        <ele>1175.069</ele>
        <time>2020-01-11T14:57:08Z</time>
      </trkpt>
      <trkpt lat="-40.015496" lon="-71.466405">
        <ele>1175.682</ele>
        <time>2020-01-11T14:57:48Z</time>
      </trkpt>
      <trkpt lat="-40.016019" lon="-71.465657">
        <ele>1172.851</ele>
        <time>2020-01-11T14:58:28Z</time>
      </trkpt>
      <trkpt lat="-40.016254" lon="-71.465021">
        <ele>1169.641</ele>
        <time>2020-01-11T14:59:08Z</time>
      </trkpt>
      <trkpt lat="-40.015970" lon="-71.464839">
        <ele>1171.681</ele>
        <time>2020-01-11T14:59:48Z</time>
      </trkpt>
      <trkpt lat="-40.015379" lon="-71.463928">
        <ele>1182.409</ele>
        <time>2020-01-11T15:00:28Z</time>
      </trkpt>
      <trkpt lat="-40.015177" lon="-71.461931">
        <ele>1189.008</ele>
        <time>2020-01-11T15:01:08Z</time>
      </trkpt>
      <trkpt lat="-40.015506" lon="-71.459769">
        <ele>1203.685</ele>
        <time>2020-01-11T15:01:48Z</time>
      </trkpt>
      <trkpt lat="-40.015715" lon="-71.459316">
        <ele>1207.830</ele>
        <time>2020-01-11T15:02:28Z</time>
      </trkpt>
      <trkpt lat="-40.015642" lon="-71.458856">
        <ele>1213.038</ele>
        <time>2020-01-11T15:03:08Z</time>
      </trkpt>
      <trkpt lat="-40.016015" lon="-71.457054">
        <ele>1225.434</ele>
        <time>2020-01-11T15:03:48Z</time>
      </trkpt>
      <trkpt lat="-40.015981" lon="-71.455229">
        <ele>1237.064</ele>
        <time>2020-01-11T15:04:28Z</time>
      </trkpt>
      <trkpt lat="-40.016436" lon="-71.452938">
        <ele>1255.264</ele>
        <time>2020-01-11T15:05:08Z</time>
      </trkpt>
      <trkpt lat="-40.016058" lon="-71.451168">
        <ele>1253.627</ele>
        <time>2020-01-11T15:05:48Z</time>
      </trkpt>
      <trkpt lat="-40.016316" lon="-71.450200">
        <ele>1248.896</ele>
        <time>2020-01-11T15:06:28Z</time>
      </trkpt>
      <trkpt lat="-40.016206" lon="-71.450032">
        <ele>1246.039</ele>
        <time>2020-01-11T15:07:08Z</time>
      </trkpt>
      <trkpt lat="-40.016447" lon="-71.449640">
        <ele>1245.801</ele>
        <time>2020-01-11T15:07:48Z</time>
      </trkpt>
      <trkpt lat="-40.016635" lon="-71.448835">
        <ele>1244.021</ele>
        <time>2020-01-11T15:08:28Z</time>
      </trkpt>
      <trkpt lat="-40.016336" lon="-71.447728">
        <ele>1244.608</ele>
        <time>2020-01-11T15:09:08Z</time>
      </trkpt>
      <trkpt lat="-40.015971" lon="-71.447291">
        <ele>1241.434</ele>
        <time>2020-01-11T15:09:48Z</time>
      </trkpt>
      <trkpt lat="-40.015984" lon="-71.446461">
        <ele>1234.829</ele>
        <time>2020-01-11T15:10:28Z</time>
      </trkpt>
      <trkpt lat="-40.016290" lon="-71.445754">
        <ele>1231.867</ele>
        <time>2020-01-11T15:11:08Z</time>
      </trkpt>
      <trkpt lat="-40.016286" lon="-71.444956">
        <ele>1223.883</ele>
        <time>2020-01-11T15:11:48Z</time>
      </trkpt>
      <trkpt lat="-40.016879" lon="-71.443943">
        <ele>1214.073</ele>
        <time>2020-01-11T15:12:28Z</time>
      </trkpt>
      <trkpt lat="-40.016935" lon="-71.443057">
        <ele>1218.493</ele>
        <time>2020-01-11T15:13:08Z</time>
      </trkpt>
      <trkpt lat="-40.017226" lon="-71.442324">
        <ele>1221.056</ele>
        <time>2020-01-11T15:13:48Z</time>
      </trkpt>
      <trkpt lat="-40.017720" lon="-71.441406">
        <ele>1221.245</ele>
        <time>2020-01-11T15:14:28Z</time>
      </trkpt>
      <trkpt lat="-40.018453" lon="-71.440682">
        <ele>1214.888</ele>
        <time>2020-01-11T15:15:08Z</time>
      </trkpt>
      <trkpt lat="-40.018542" lon="-71.440337">
        <ele>1211.424</ele>
        <time>2020-01-11T15:15:48Z</time>
      </trkpt>
      <trkpt lat="-40.019558" lon="-71.438919">
        <ele>1198.026</ele>
        <time>2020-01-11T15:16:28Z</time>
      </trkpt>
      <trkpt lat="-40.019873" lon="-71.438672">
        <ele>1194.208</ele>
        <time>2020-01-11T15:17:08Z</time>
      </trkpt>
      <trkpt lat="-40.020099" lon="-71.438059">
        <ele>1184.419</ele>
        <time>2020-01-11T15:17:48Z</time>
      </trkpt>
      <trkpt lat="-40.020142" lon="-71.437126">
        <ele>1183.094</ele>
        <time>2020-01-11T15:18:28Z</time>
      </trkpt>
      <trkpt lat="-40.020054" lon="-71.437260">
        <ele>1184.252</ele>
        <time>2020-01-11T15:19:08Z</time>
      </trkpt>
      <trkpt lat="-40.020207" lon="-71.437098">
        <ele>1186.068</ele>
        <time>2020-01-11T15:19:48Z</time>
      </trkpt>
      <trkpt lat="-40.020084" lon="-71.436827">
        <ele>1187.898</ele>
        <time>2020-01-11T15:20:28Z</time>
      </trkpt>
      <trkpt lat="-40.020373" lon="-71.436499">
        <ele>1185.218</ele>
        <time>2020-01-11T15:21:08Z</time>
      </trkpt>
      <trkpt lat="-40.020415" lon="-71.435394">
        <ele>1181.881</ele>
        <time>2020-01-11T15:21:48Z</time>
      </trkpt>
      <trkpt lat="-40.021235" lon="-71.432182">
        <ele>1175.030</ele>
        <time>2020-01-11T15:22:28Z</time>
      </trkpt>
      <trkpt lat="-40.021308" lon="-71.430685">
        <ele>1172.896</ele>
        <time>2020-01-11T15:23:08Z</time>
      </trkpt>
      <trkpt lat="-40.021693" lon="-71.429281">
        <ele>1175.631</ele>
        <time>2020-01-11T15:23:48Z</time>
      </trkpt>
      <trkpt lat="-40.021476" lon="-71.429118">
        <ele>1176.024</ele>
        <time>2020-01-11T15:24:28Z</time>
      </trkpt>
      <trkpt lat="-40.021388" lon="-71.427573">
        <ele>1177.808</ele>
        <time>2020-01-11T15:25:08Z</time>
      </trkpt>
      <trkpt lat="-40.021128" lon="-71.426409">
        <ele>1176.090</ele>
        <time>2020-01-11T15:25:48Z</time>
      </trkpt>
      <trkpt lat="-40.021288" lon="-71.425318">
        <ele>1170.865</ele>
        <time>2020-01-11T15:26:28Z</time>
      </trkpt>
      <trkpt lat="-40.020587" lon="-71.425045">
        <ele>1184.623</ele>
        <time>2020-01-11T15:27:08Z</time>
      </trkpt>
      <trkpt lat="-40.020373" lon="-71.424209">
        <ele>1189.849</ele>
        <time>2020-01-11T15:27:48Z</time>
      </trkpt>
      <trkpt lat="-40.020152" lon="-71.423894">
        <ele>1192.039</ele>
        <time>2020-01-11T15:28:28Z</time>
      </trkpt>
      <trkpt lat="-40.020357" lon="-71.421171">
        <ele>1181.039</ele>
        <time>2020-01-11T15:29:08Z</time>
      </trkpt>
      <trkpt lat="-40.020440" lon="-71.420733">
        <ele>1177.632</ele>
        <time>2020-01-11T15:29:48Z</time>
      </trkpt>
      <trkpt lat="-40.020912" lon="-71.419944">
        <ele>1161.211</ele>
        <time>2020-01-11T15:30:28Z</time>
      </trkpt>
      <trkpt lat="-40.020746" lon="-71.419783">
        <ele>1165.653</ele>
        <time>2020-01-11T15:31:08Z</time>
      </trkpt>
      <trkpt lat="-40.021121" lon="-71.419196">
        <ele>1165.004</ele>
        <time>2020-01-11T15:31:48Z</time>
      </trkpt>
      <trkpt lat="-40.021089" lon="-71.418919">
        <ele>1164.614</ele>
        <time>2020-01-11T15:32:28Z</time>
      </trkpt>
      <trkpt lat="-40.021308" lon="-71.418748">
        <ele>1162.608</ele>
        <time>2020-01-11T15:33:08Z</time>
      </trkpt>
      <trkpt lat="-40.021452" lon="-71.418817">
        <ele>1162.216</ele>
        <time>2020-01-11T15:33:48Z</time>
      </trkpt>
      <trkpt lat="-40.021334" lon="-71.418710">
        <ele>1162.871</ele>
        <time>2020-01-11T15:34:28Z</time>
      </trkpt>
      <trkpt lat="-40.021246" lon="-71.418886">
        <ele>1164.869</ele>
        <time>2020-01-11T15:35:08Z</time>
      </trkpt>
      <trkpt lat="-40.021235" lon="-71.418392">
        <ele>1164.825</ele>
        <time>2020-01-11T15:35:48Z</time>
      </trkpt>
      <trkpt lat="-40.021776" lon="-71.417782">
        <ele>1164.835</ele>
        <time>2020-01-11T15:36:28Z</time>
      </trkpt>
      <trkpt lat="-40.022042" lon="-71.416819">
        <ele>1164.075</ele>
        <time>2020-01-11T15:37:08Z</time>
      </trkpt>
      <trkpt lat="-40.021799" lon="-71.416274">
        <ele>1167.818</ele>
        <time>2020-01-11T15:37:48Z</time>
      </trkpt>
      <trkpt lat="-40.021833" lon="-71.415756">
        <ele>1168.087</ele>
        <time>2020-01-11T15:38:28Z</time>
      </trkpt>
      <trkpt lat="-40.021661" lon="-71.415460">
        <ele>1166.898</ele>
        <time>2020-01-11T15:39:08Z</time>
      </trkpt>
      <trkpt lat="-40.021646" lon="-71.414997">
        <ele>1164.015</ele>
        <time>2020-01-11T15:39:48Z</time>
      </trkpt>
      <trkpt lat="-40.021221" lon="-71.414312">
        <ele>1163.826</ele>
        <time>2020-01-11T15:40:28Z</time>
      </trkpt>
      <trkpt lat="-40.020994" lon="-71.413263">
        <ele>1176.808</ele>
        <time>2020-01-11T15:41:08Z</time>
      </trkpt>
      <trkpt lat="-40.020998" lon="-71.412355">
        <ele>1192.260</ele>
        <time>2020-01-11T15:41:48Z</time>
      </trkpt>
      <trkpt lat="-40.021319" lon="-71.411327">
        <ele>1204.855</ele>
        <time>2020-01-11T15:42:28Z</time>
      </trkpt>
      <trkpt lat="-40.021536" lon="-71.411096">
        <ele>1206.033</ele>
        <time>2020-01-11T15:43:08Z</time>
      </trkpt>
      <trkpt lat="-40.021486" lon="-71.410869">
        <ele>1208.469</ele>
        <time>2020-01-11T15:43:48Z</time>
      </trkpt>
      <trkpt lat="-40.021697" lon="-71.410332">
        <ele>1227.299</ele>
        <time>2020-01-11T15:44:28Z</time>
      </trkpt>
      <trkpt lat="-40.021271" lon="-71.409487">
        <ele>1239.439</ele>
        <time>2020-01-11T15:45:08Z</time>
      </trkpt>
      <trkpt lat="-40.021342" lon="-71.410191">
        <ele>1255.272</ele>
        <time>2020-01-11T15:45:48Z</time>
      </trkpt>
      <trkpt lat="-40.021250" lon="-71.410318">
        <ele>1260.071</ele>
        <time>2020-01-11T15:46:28Z</time>
      </trkpt>
      <trkpt lat="-40.020817" lon="-71.410353">
        <ele>1271.673</ele>
        <time>2020-01-11T15:47:08Z</time>
      </trkpt>
      <trkpt lat="-40.020630" lon="-71.409585">
        <ele>1286.485</ele>
        <time>2020-01-11T15:47:48Z</time>
      </trkpt>
      <trkpt lat="-40.020148" lon="-71.409300">
        <ele>1297.413</ele>
        <time>2020-01-11T15:48:28Z</time>
      </trkpt>
      <trkpt lat="-40.019708" lon="-71.408238">
        <ele>1317.408</ele>
        <time>2020-01-11T15:49:08Z</time>
      </trkpt>
      <trkpt lat="-40.019655" lon="-71.408349">
        <ele>1322.888</ele>
        <time>2020-01-11T15:49:48Z</time>
      </trkpt>
      <trkpt lat="-40.019469" lon="-71.408010">
        <ele>1326.643</ele>
        <time>2020-01-11T15:50:28Z</time>
      </trkpt>
      <trkpt lat="-40.019901" lon="-71.407578">
        <ele>1314.071</ele>
        <time>2020-01-11T15:51:08Z</time>
      </trkpt>
      <trkpt lat="-40.020168" lon="-71.406815">
        <ele>1316.877</ele>
        <time>2020-01-11T15:51:48Z</time>
      </trkpt>
      <trkpt lat="-40.020058" lon="-71.406535">
        <ele>1312.457</ele>
        <time>2020-01-11T15:52:28Z</time>
      </trkpt>
      <trkpt lat="-40.020672" lon="-71.405488">
        <ele>1285.017</ele>
        <time>2020-01-11T15:53:08Z</time>
      </trkpt>
      <trkpt lat="-40.020679" lon="-71.405178">
        <ele>1281.640</ele>
        <time>2020-01-11T15:53:48Z</time>
      </trkpt>
      <trkpt lat="-40.020398" lon="-71.404989">
        <ele>1273.699</ele>
        <time>2020-01-11T15:54:28Z</time>
      </trkpt>
      <trkpt lat="-40.020262" lon="-71.404582">
        <ele>1270.821</ele>
        <time>2020-01-11T15:55:08Z</time>
      </trkpt>
      <trkpt lat="-40.020528" lon="-71.404092">
        <ele>1259.041</ele>
        <time>2020-01-11T15:55:48Z</time>
      </trkpt>
      <trkpt lat="-40.020460" lon="-71.403361">
        <ele>1251.605</ele>
        <time>2020-01-11T15:56:28Z</time>
      </trkpt>
      <trkpt lat="-40.020938" lon="-71.402852">
        <ele>1238.408</ele>
        <time>2020-01-11T15:57:08Z</time>
      </trkpt>
      <trkpt lat="-40.021199" lon="-71.401944">
        <ele>1232.443</ele>
        <time>2020-01-11T15:57:48Z</time>
      </trkpt>
      <trkpt lat="-40.021132" lon="-71.401709">
        <ele>1238.048</ele>
        <time>2020-01-11T15:58:28Z</time>
      </trkpt>
      <trkpt lat="-40.021377" lon="-71.400685">
        <ele>1239.846</ele>
        <time>2020-01-11T15:59:08Z</time>
      </trkpt>
      <trkpt lat="-40.021195" lon="-71.400223">
        <ele>1235.032</ele>
        <time>2020-01-11T15:59:48Z</time>
      </trkpt>
      <trkpt lat="-40.021214" lon="-71.399746">
        <ele>1234.862</ele>
        <time>2020-01-11T16:00:28Z</time>
      </trkpt>
      <trkpt lat="-40.020529" lon="-71.398805">
        <ele>1232.492</ele>
        <time>2020-01-11T16:01:08Z</time>
      </trkpt>
      <trkpt lat="-40.020113" lon="-71.398627">
        <ele>1230.625</ele>
        <time>2020-01-11T16:01:48Z</time>
      </trkpt>
      <trkpt lat="-40.019820" lon="-71.397128">
        <ele>1204.224</ele>
        <time>2020-01-11T16:02:28Z</time>
      </trkpt>
      <trkpt lat="-40.019536" lon="-71.396975">
        <ele>1198.454</ele>
        <time>2020-01-11T16:03:08Z</time>
      </trkpt>
      <trkpt lat="-40.019562" lon="-71.396736">
        <ele>1199.656</ele>
        <time>2020-01-11T16:03:48Z</time>
      </trkpt>
      <trkpt lat="-40.019767" lon="-71.396665">
        <ele>1203.811</ele>
        <time>2020-01-11T16:04:28Z</time>
      </trkpt>
      <trkpt lat="-40.019923" lon="-71.396257">
        <ele>1211.008</ele>
        <time>2020-01-11T16:05:08Z</time>
      </trkpt>
      <trkpt lat="-40.019689" lon="-71.395379">
        <ele>1220.826</ele>
        <time>2020-01-11T16:05:48Z</time>
      </trkpt>
      <trkpt lat="-40.019749" lon="-71.394921">
        <ele>1227.041</ele>
        <time>2020-01-11T16:06:28Z</time>
      </trkpt>
      <trkpt lat="-40.019497" lon="-71.394798">
        <ele>1226.639</ele>
        <time>2020-01-11T16:07:08Z</time>
      </trkpt>
      <trkpt lat="-40.019196" lon="-71.393527">
        <ele>1238.065</ele>
        <time>2020-01-11T16:07:48Z</time>
      </trkpt>
      <trkpt lat="-40.019171" lon="-71.393862">
        <ele>1245.855</ele>
        <time>2020-01-11T16:08:28Z</time>
      </trkpt>
      <trkpt lat="-40.019025" lon="-71.393761">
        <ele>1250.025</ele>
        <time>2020-01-11T16:09:08Z</time>
      </trkpt>
      <trkpt lat="-40.018884" lon="-71.393845">
        <ele>1255.868</ele>
        <time>2020-01-11T16:09:48Z</time>
      </trkpt>
      <trkpt lat="-40.018837" lon="-71.393603">
        <ele>1262.417</ele>
        <time>2020-01-11T16:10:28Z</time>
      </trkpt>
      <trkpt lat="-40.018727" lon="-71.393808">
        <ele>1268.875</ele>
        <time>2020-01-11T16:11:08Z</time>
      </trkpt>
      <trkpt lat="-40.018496" lon="-71.393801">
        <ele>1276.828</ele>
        <time>2020-01-11T16:11:48Z</time>
      </trkpt>
      <trkpt lat="-40.018476" lon="-71.393652">
        <ele>1282.220</ele>
        <time>2020-01-11T16:12:28Z</time>
      </trkpt>
      <trkpt lat="-40.018411" lon="-71.393754">
        <ele>1285.408</ele>
        <time>2020-01-11T16:13:08Z</time>
      </trkpt>
      <trkpt lat="-40.018056" lon="-71.392933">
        <ele>1300.688</ele>
        <time>2020-01-11T16:13:48Z</time>
      </trkpt>
      <trkpt lat="-40.017631" lon="-71.392515">
        <ele>1307.013</ele>
        <time>2020-01-11T16:14:28Z</time>
      </trkpt>
      <trkpt lat="-40.016716" lon="-71.390993">
        <ele>1307.291</ele>
        <time>2020-01-11T16:15:08Z</time>
      </trkpt>
      <trkpt lat="-40.016039" lon="-71.389503">
        <ele>1297.427</ele>
        <time>2020-01-11T16:15:48Z</time>
      </trkpt>
      <trkpt lat="-40.015307" lon="-71.389034">
        <ele>1294.267</ele>
        <time>2020-01-11T16:16:28Z</time>
      </trkpt>
      <trkpt lat="-40.014546" lon="-71.388837">
        <ele>1298.457</ele>
        <time>2020-01-11T16:17:08Z</time>
      </trkpt>
      <trkpt lat="-40.014572" lon="-71.388321">
        <ele>1293.220</ele>
        <time>2020-01-11T16:17:48Z</time>
      </trkpt>
      <trkpt lat="-40.014271" lon="-71.388111">
        <ele>1290.439</ele>
        <time>2020-01-11T16:18:28Z</time>
      </trkpt>
      <trkpt lat="-40.014166" lon="-71.387516">
        <ele>1289.482</ele>
        <time>2020-01-11T16:19:08Z</time>
      </trkpt>
      <trkpt lat="-40.014178" lon="-71.386835">
        <ele>1288.443</ele>
        <time>2020-01-11T16:19:48Z</time>
      </trkpt>
      <trkpt lat="-40.014338" lon="-71.386407">
        <ele>1288.217</ele>
        <time>2020-01-11T16:20:28Z</time>
      </trkpt>
      <trkpt lat="-40.014275" lon="-71.385995">
        <ele>1286.008</ele>
        <time>2020-01-11T16:21:08Z</time>
      </trkpt>
      <trkpt lat="-40.013768" lon="-71.385456">
        <ele>1284.849</ele>
        <time>2020-01-11T16:21:48Z</time>
      </trkpt>
      <trkpt lat="-40.013717" lon="-71.384734">
        <ele>1274.044</ele>
        <time>2020-01-11T16:22:28Z</time>
      </trkpt>
      <trkpt lat="-40.012635" lon="-71.383877">
        <ele>1259.652</ele>
        <time>2020-01-11T16:23:08Z</time>
      </trkpt>
      <trkpt lat="-40.012687" lon="-71.383649">
        <ele>1261.048</ele>
        <time>2020-01-11T16:23:48Z</time>
      </trkpt>
      <trkpt lat="-40.013041" lon="-71.383316">
        <ele>1262.028</ele>
        <time>2020-01-11T16:24:28Z</time>
      </trkpt>
      <trkpt lat="-40.012622" lon="-71.382267">
        <ele>1256.458</ele>
        <time>2020-01-11T16:25:08Z</time>
      </trkpt>
      <trkpt lat="-40.012947" lon="-71.381844">
        <ele>1252.261</ele>
        <time>2020-01-11T16:25:48Z</time>
      </trkpt>
      <trkpt lat="-40.012752" lon="-71.380922">
        <ele>1255.250</ele>
        <time>2020-01-11T16:26:28Z</time>
      </trkpt>
      <trkpt lat="-40.013678" lon="-71.380952">
        <ele>1256.239</ele>
        <time>2020-01-11T16:27:08Z</time>
      </trkpt>
      <trkpt lat="-40.013879" lon="-71.380227">
        <ele>1253.001</ele>
        <time>2020-01-11T16:27:48Z</time>
      </trkpt>
      <trkpt lat="-40.013556" lon="-71.378354">
        <ele>1247.221</ele>
        <time>2020-01-11T16:28:28Z</time>
      </trkpt>
      <trkpt lat="-40.013706" lon="-71.376130">
        <ele>1232.008</ele>
        <time>2020-01-11T16:29:08Z</time>
      </trkpt>
      <trkpt lat="-40.014130" lon="-71.375064">
        <ele>1222.414</ele>
        <time>2020-01-11T16:29:48Z</time>
      </trkpt>
      <trkpt lat="-40.014003" lon="-71.374392">
        <ele>1218.679</ele>
        <time>2020-01-11T16:30:28Z</time>
      </trkpt>
      <trkpt lat="-40.014432" lon="-71.373975">
        <ele>1214.297</ele>
        <time>2020-01-11T16:31:08Z</time>
      </trkpt>
      <trkpt lat="-40.014927" lon="-71.374163">
        <ele>1205.233</ele>
        <time>2020-01-11T16:31:48Z</time>
      </trkpt>
      <trkpt lat="-40.015034" lon="-71.374428">
        <ele>1202.093</ele>
        <time>2020-01-11T16:32:28Z</time>
      </trkpt>
      <trkpt lat="-40.015291" lon="-71.374568">
        <ele>1198.043</ele>
        <time>2020-01-11T16:33:08Z</time>
      </trkpt>
      <trkpt lat="-40.015483" lon="-71.374412">
        <ele>1194.246</ele>
        <time>2020-01-11T16:33:48Z</time>
      </trkpt>
      <trkpt lat="-40.015832" lon="-71.374502">
        <ele>1189.075</ele>
        <time>2020-01-11T16:34:28Z</time>
      </trkpt>
      <trkpt lat="-40.016063" lon="-71.374194">
        <ele>1186.627</ele>
        <time>2020-01-11T16:35:08Z</time>
      </trkpt>
    </trkseg>
  </trk>
</gpx>
